Time,TemperatureF,DewpointF,PressureIn,WindDirection,WindDirectionDegrees,WindSpeedMPH,WindSpeedGustMPH,Humidity,HourlyPrecipIn,Conditions,Clouds,dailyrainin,SoftwareType,DateUTC
2013-02-05 00:00:00,58.0,53.2,30.00,East,93,0.0,0.0,84,0.00,,SCT020,0.00,VWS V14.01,2013-02-05 05:00:00,
2013-02-05 00:02:00,58.0,53.5,30.00,East,93,0.0,0.0,85,0.00,,SCT020,0.00,VWS V14.01,2013-02-05 05:02:00,
2013-02-05 00:03:00,58.0,53.5,30.00,East,93,0.0,0.0,85,0.00,,SCT020,0.00,VWS V14.01,2013-02-05 05:03:00,
2013-02-05 00:06:00,57.8,53.3,30.00,East,93,0.0,0.0,85,0.00,,SCT020,0.00,VWS V14.01,2013-02-05 05:06:00,
2013-02-05 00:09:00,57.8,53.3,30.00,East,93,0.0,0.0,85,0.00,,SCT020,0.00,VWS V14.01,2013-02-05 05:09:00,
2013-02-05 00:11:00,57.8,53.3,30.00,East,93,0.0,0.0,85,0.00,,SCT020,0.00,VWS V14.01,2013-02-05 05:11:00,
2013-02-05 00:13:00,57.6,53.1,30.00,East,93,0.0,0.0,85,0.00,,SCT020,0.00,VWS V14.01,2013-02-05 05:13:00,
2013-02-05 00:14:00,57.6,52.8,30.00,East,93,0.0,0.0,84,0.00,,SCT020,0.00,VWS V14.01,2013-02-05 05:14:00,
2013-02-05 00:17:00,57.6,52.8,29.99,East,93,0.0,0.0,84,0.00,,SCT020,0.00,VWS V14.01,2013-02-05 05:17:00,
2013-02-05 00:18:00,57.6,52.8,29.99,East,93,0.0,0.0,84,0.00,,SCT020,0.00,VWS V14.01,2013-02-05 05:18:00,
2013-02-05 00:20:00,57.5,52.7,29.99,East,93,0.0,0.0,84,0.00,,SCT020,0.00,VWS V14.01,2013-02-05 05:20:00,
2013-02-05 00:21:00,57.5,52.7,29.99,East,93,0.0,0.0,84,0.00,,SCT020,0.00,VWS V14.01,2013-02-05 05:21:00,
2013-02-05 00:23:00,57.5,53.0,29.99,East,93,0.0,0.0,85,0.00,,SCT020,0.00,VWS V14.01,2013-02-05 05:23:00,
2013-02-05 00:25:00,57.5,53.0,29.99,East,93,0.0,0.0,85,0.00,,SCT020,0.00,VWS V14.01,2013-02-05 05:25:00,
2013-02-05 00:27:00,57.5,53.0,29.99,East,93,0.0,0.0,85,0.00,,SCT020,0.00,VWS V14.01,2013-02-05 05:27:00,
2013-02-05 00:30:00,57.5,53.3,29.99,East,93,0.0,0.0,86,0.00,,SCT020,0.00,VWS V14.01,2013-02-05 05:30:00,
2013-02-05 00:32:00,57.5,53.3,29.99,East,93,0.0,0.0,86,0.00,,SCT020,0.00,VWS V14.01,2013-02-05 05:32:00,
2013-02-05 00:34:00,57.5,53.3,29.99,East,93,0.0,0.0,86,0.00,,SCT020,0.00,VWS V14.01,2013-02-05 05:34:00,
2013-02-05 00:37:00,57.3,53.2,29.99,East,93,0.0,0.0,86,0.00,,SCT020,0.00,VWS V14.01,2013-02-05 05:37:00,
2013-02-05 00:38:00,57.3,53.2,29.99,East,93,0.0,0.0,86,0.00,,SCT020,0.00,VWS V14.01,2013-02-05 05:38:00,
2013-02-05 00:42:00,57.3,53.2,29.99,East,93,0.0,0.0,86,0.00,,SCT020,0.00,VWS V14.01,2013-02-05 05:42:00,
2013-02-05 00:43:00,57.3,53.2,29.99,East,93,0.0,0.0,86,0.00,,SCT020,0.00,VWS V14.01,2013-02-05 05:43:00,
2013-02-05 00:46:00,57.2,53.1,29.99,East,93,0.0,0.0,86,0.00,,SCT020,0.00,VWS V14.01,2013-02-05 05:46:00,
2013-02-05 00:47:00,57.2,53.1,29.99,East,93,0.0,0.0,86,0.00,,SCT020,0.00,VWS V14.01,2013-02-05 05:47:00,
2013-02-05 00:48:00,57.2,53.1,29.99,East,93,0.0,0.0,86,0.00,,SCT020,0.00,VWS V14.01,2013-02-05 05:48:00,
2013-02-05 00:51:00,57.0,52.9,29.99,East,93,0.0,0.0,86,0.00,,SCT020,0.00,VWS V14.01,2013-02-05 05:51:00,
2013-02-05 00:52:00,57.0,52.9,29.99,East,93,0.0,0.0,86,0.00,,SCT020,0.00,VWS V14.01,2013-02-05 05:52:00,
2013-02-05 00:53:00,57.0,52.9,29.99,East,93,0.0,0.0,86,0.00,,SCT020,0.00,VWS V14.01,2013-02-05 05:53:00,
2013-02-05 00:58:00,57.0,52.9,29.99,East,93,0.0,0.0,86,0.00,,SCT020,0.00,VWS V14.01,2013-02-05 05:58:00,
2013-02-05 00:59:00,57.0,52.9,29.99,East,93,0.0,0.0,86,0.00,,SCT020,0.00,VWS V14.01,2013-02-05 05:59:00,
2013-02-05 01:00:00,57.0,53.2,29.99,East,93,0.0,0.0,87,0.00,,SCT020,0.00,VWS V14.01,2013-02-05 06:00:00,
2013-02-05 01:04:00,57.0,53.2,29.99,East,93,0.0,0.0,87,0.00,,SCT020,0.00,VWS V14.01,2013-02-05 06:04:00,
2013-02-05 01:05:00,57.0,53.2,29.99,East,93,0.0,0.0,87,0.00,,SCT020,0.00,VWS V14.01,2013-02-05 06:05:00,
2013-02-05 01:06:00,57.0,53.2,29.99,East,93,0.0,0.0,87,0.00,,SCT020,0.00,VWS V14.01,2013-02-05 06:06:00,
2013-02-05 01:07:00,57.0,53.2,29.99,East,93,0.0,0.0,87,0.00,,SCT020,0.00,VWS V14.01,2013-02-05 06:07:00,
2013-02-05 01:10:00,57.0,53.2,29.99,East,93,0.0,0.0,87,0.00,,SCT020,0.00,VWS V14.01,2013-02-05 06:10:00,
2013-02-05 01:12:00,57.0,53.2,29.99,East,93,0.0,0.0,87,0.00,,SCT020,0.00,VWS V14.01,2013-02-05 06:12:00,
2013-02-05 01:13:00,57.0,53.5,29.99,East,93,0.0,0.0,88,0.00,,SCT020,0.00,VWS V14.01,2013-02-05 06:13:00,
2013-02-05 01:16:00,57.0,53.5,29.99,East,93,0.0,0.0,88,0.00,,SCT020,0.00,VWS V14.01,2013-02-05 06:16:00,
2013-02-05 01:17:00,57.2,53.7,29.99,East,93,0.0,0.0,88,0.00,,SCT020,0.00,VWS V14.01,2013-02-05 06:17:00,
2013-02-05 01:18:00,57.2,53.7,29.99,East,93,0.0,0.0,88,0.00,,SCT020,0.00,VWS V14.01,2013-02-05 06:18:00,
2013-02-05 01:19:00,57.2,53.7,29.99,East,93,0.0,0.0,88,0.00,,SCT020,0.00,VWS V14.01,2013-02-05 06:19:00,
2013-02-05 01:23:00,57.0,53.5,29.99,East,93,0.0,0.0,88,0.00,,SCT020,0.00,VWS V14.01,2013-02-05 06:23:00,
2013-02-05 01:25:00,57.2,54.0,29.99,West,274,2.0,2.0,89,0.00,,SCT020,0.00,VWS V14.01,2013-02-05 06:25:00,
2013-02-05 01:28:00,57.3,54.1,29.99,West,274,0.0,0.0,89,0.00,,SCT020,0.00,VWS V14.01,2013-02-05 06:28:00,
2013-02-05 01:30:00,57.3,54.1,29.99,West,274,0.0,0.0,89,0.00,,SCT020,0.00,VWS V14.01,2013-02-05 06:30:00,
2013-02-05 01:31:00,57.3,54.1,29.99,West,274,0.0,0.0,89,0.00,,SCT020,0.00,VWS V14.01,2013-02-05 06:31:00,
2013-02-05 01:34:00,57.3,54.1,29.99,West,274,0.0,0.0,89,0.00,,SCT020,0.00,VWS V14.01,2013-02-05 06:34:00,
2013-02-05 01:36:00,57.3,54.1,29.99,West,274,0.0,1.0,89,0.00,,SCT020,0.00,VWS V14.01,2013-02-05 06:36:00,
2013-02-05 01:40:00,57.3,54.1,29.99,West,274,0.0,0.0,89,0.00,,SCT020,0.00,VWS V14.01,2013-02-05 06:40:00,
2013-02-05 01:41:00,57.3,54.1,29.99,West,274,0.0,0.0,89,0.00,,SCT020,0.00,VWS V14.01,2013-02-05 06:41:00,
2013-02-05 01:42:00,57.3,54.1,29.99,West,274,0.0,0.0,89,0.00,,SCT020,0.00,VWS V14.01,2013-02-05 06:42:00,
2013-02-05 01:43:00,57.3,54.1,29.99,West,274,0.0,0.0,89,0.00,,SCT020,0.00,VWS V14.01,2013-02-05 06:43:00,
2013-02-05 01:46:00,57.2,54.0,29.99,West,274,0.0,0.0,89,0.00,,SCT020,0.00,VWS V14.01,2013-02-05 06:46:00,
2013-02-05 01:48:00,57.2,54.0,29.99,West,274,0.0,1.0,89,0.00,,SCT020,0.00,VWS V14.01,2013-02-05 06:48:00,
2013-02-05 01:50:00,57.2,54.0,29.99,West,274,0.0,1.0,89,0.00,,SCT020,0.00,VWS V14.01,2013-02-05 06:50:00,
2013-02-05 01:51:00,57.2,54.0,29.99,West,274,0.0,0.0,89,0.00,,SCT020,0.00,VWS V14.01,2013-02-05 06:51:00,
2013-02-05 01:54:00,57.2,54.0,29.99,West,274,0.0,0.0,89,0.00,,SCT020,0.00,VWS V14.01,2013-02-05 06:54:00,
2013-02-05 01:56:00,57.2,54.0,29.99,West,274,0.0,0.0,89,0.00,,SCT020,0.00,VWS V14.01,2013-02-05 06:56:00,
2013-02-05 01:59:00,57.0,53.8,29.99,West,274,0.0,0.0,89,0.00,,SCT020,0.00,VWS V14.01,2013-02-05 06:59:00,
2013-02-05 02:01:00,57.0,53.8,29.98,West,274,0.0,0.0,89,0.00,,SCT020,0.00,VWS V14.01,2013-02-05 07:01:00,
2013-02-05 02:02:00,57.0,53.8,29.98,West,274,0.0,0.0,89,0.00,,SCT020,0.00,VWS V14.01,2013-02-05 07:02:00,
2013-02-05 02:03:00,57.0,53.8,29.98,West,274,0.0,0.0,89,0.00,,SCT020,0.00,VWS V14.01,2013-02-05 07:03:00,
2013-02-05 02:07:00,57.0,53.8,29.98,West,274,0.0,0.0,89,0.00,,SCT020,0.00,VWS V14.01,2013-02-05 07:07:00,
2013-02-05 02:08:00,57.0,53.8,29.98,West,274,0.0,0.0,89,0.00,,SCT020,0.00,VWS V14.01,2013-02-05 07:08:00,
2013-02-05 02:09:00,56.9,53.7,29.98,West,274,0.0,0.0,89,0.00,,SCT020,0.00,VWS V14.01,2013-02-05 07:09:00,
2013-02-05 02:12:00,56.9,53.7,29.98,West,274,0.0,0.0,89,0.00,,SCT020,0.00,VWS V14.01,2013-02-05 07:12:00,
2013-02-05 02:14:00,56.9,53.7,29.98,West,274,0.0,0.0,89,0.00,,SCT020,0.00,VWS V14.01,2013-02-05 07:14:00,
2013-02-05 02:16:00,56.9,53.7,29.98,West,274,0.0,0.0,89,0.00,,SCT020,0.00,VWS V14.01,2013-02-05 07:16:00,
2013-02-05 02:17:00,56.9,53.7,29.98,West,274,0.0,0.0,89,0.00,,SCT020,0.00,VWS V14.01,2013-02-05 07:17:00,
2013-02-05 02:20:00,56.9,53.7,29.98,West,274,0.0,0.0,89,0.00,,SCT020,0.00,VWS V14.01,2013-02-05 07:20:00,
2013-02-05 02:22:00,56.9,53.7,29.98,West,274,0.0,0.0,89,0.00,,SCT020,0.00,VWS V14.01,2013-02-05 07:22:00,
2013-02-05 02:25:00,56.9,53.7,29.98,West,274,0.0,0.0,89,0.00,,SCT020,0.00,VWS V14.01,2013-02-05 07:25:00,
2013-02-05 02:26:00,56.9,53.7,29.98,West,274,0.0,0.0,89,0.00,,SCT020,0.00,VWS V14.01,2013-02-05 07:26:00,
2013-02-05 02:30:00,56.7,53.5,29.98,West,274,0.0,0.0,89,0.00,,SCT020,0.00,VWS V14.01,2013-02-05 07:30:00,
2013-02-05 02:31:00,56.7,53.5,29.98,West,274,0.0,0.0,89,0.00,,SCT020,0.00,VWS V14.01,2013-02-05 07:31:00,
2013-02-05 02:34:00,56.7,53.5,29.98,West,274,0.0,0.0,89,0.00,,SCT020,0.00,VWS V14.01,2013-02-05 07:34:00,
2013-02-05 02:35:00,56.6,53.4,29.98,West,274,0.0,0.0,89,0.00,,SCT020,0.00,VWS V14.01,2013-02-05 07:35:00,
2013-02-05 02:36:00,56.7,53.5,29.98,West,274,0.0,0.0,89,0.00,,SCT020,0.00,VWS V14.01,2013-02-05 07:36:00,
2013-02-05 02:39:00,56.7,53.5,29.98,West,274,0.0,0.0,89,0.00,,SCT020,0.00,VWS V14.01,2013-02-05 07:39:00,
2013-02-05 02:41:00,56.7,53.5,29.98,West,274,0.0,0.0,89,0.00,,SCT020,0.00,VWS V14.01,2013-02-05 07:41:00,
2013-02-05 02:44:00,56.7,53.5,29.98,West,274,0.0,0.0,89,0.00,,SCT020,0.00,VWS V14.01,2013-02-05 07:44:00,
2013-02-05 02:46:00,56.7,53.8,29.97,West,274,0.0,0.0,90,0.00,,SCT020,0.00,VWS V14.01,2013-02-05 07:46:00,
2013-02-05 02:47:00,56.7,53.8,29.97,West,274,0.0,0.0,90,0.00,,SCT020,0.00,VWS V14.01,2013-02-05 07:47:00,
2013-02-05 02:49:00,56.7,53.8,29.97,West,274,0.0,0.0,90,0.00,,SCT020,0.00,VWS V14.01,2013-02-05 07:49:00,
2013-02-05 02:50:00,56.7,53.8,29.97,West,274,0.0,0.0,90,0.00,,SCT020,0.00,VWS V14.01,2013-02-05 07:50:00,
2013-02-05 02:52:00,56.6,53.7,29.97,West,274,0.0,0.0,90,0.00,,SCT020,0.00,VWS V14.01,2013-02-05 07:52:00,
2013-02-05 02:53:00,56.6,53.7,29.97,West,274,0.0,0.0,90,0.00,,SCT020,0.00,VWS V14.01,2013-02-05 07:53:00,
2013-02-05 02:57:00,56.6,53.7,29.97,West,274,0.0,0.0,90,0.00,,SCT020,0.00,VWS V14.01,2013-02-05 07:57:00,
2013-02-05 02:58:00,56.6,53.7,29.97,West,274,0.0,0.0,90,0.00,,SCT020,0.00,VWS V14.01,2013-02-05 07:58:00,
2013-02-05 03:00:00,56.5,53.6,29.97,West,274,0.0,0.0,90,0.00,,SCT020,0.00,VWS V14.01,2013-02-05 08:00:00,
2013-02-05 03:03:00,56.3,53.4,29.97,West,274,0.0,0.0,90,0.00,,SCT020,0.00,VWS V14.01,2013-02-05 08:03:00,
2013-02-05 03:05:00,56.3,53.4,29.97,West,274,0.0,0.0,90,0.00,,SCT020,0.00,VWS V14.01,2013-02-05 08:05:00,
2013-02-05 03:06:00,56.3,53.4,29.97,West,274,0.0,0.0,90,0.00,,SCT020,0.00,VWS V14.01,2013-02-05 08:06:00,
2013-02-05 03:09:00,56.3,53.4,29.97,West,274,0.0,0.0,90,0.00,,SCT020,0.00,VWS V14.01,2013-02-05 08:09:00,
2013-02-05 03:12:00,56.2,53.3,29.97,West,274,0.0,0.0,90,0.00,,SCT020,0.00,VWS V14.01,2013-02-05 08:12:00,
2013-02-05 03:16:00,56.2,53.3,29.97,West,274,0.0,0.0,90,0.00,,SCT020,0.00,VWS V14.01,2013-02-05 08:16:00,
2013-02-05 03:17:00,56.2,53.3,29.97,West,274,0.0,0.0,90,0.00,,SCT020,0.00,VWS V14.01,2013-02-05 08:17:00,
2013-02-05 03:20:00,56.2,53.3,29.97,West,274,0.0,0.0,90,0.00,,SCT020,0.00,VWS V14.01,2013-02-05 08:20:00,
2013-02-05 03:23:00,56.2,53.3,29.97,West,274,0.0,0.0,90,0.00,,SCT020,0.00,VWS V14.01,2013-02-05 08:23:00,
2013-02-05 03:27:00,56.2,53.3,29.97,West,274,0.0,0.0,90,0.00,,SCT020,0.00,VWS V14.01,2013-02-05 08:27:00,
2013-02-05 03:28:00,56.2,53.3,29.97,West,274,0.0,0.0,90,0.00,,SCT020,0.00,VWS V14.01,2013-02-05 08:28:00,
2013-02-05 03:29:00,56.2,53.3,29.97,West,274,0.0,0.0,90,0.00,,SCT020,0.00,VWS V14.01,2013-02-05 08:29:00,
2013-02-05 03:31:00,56.2,53.3,29.96,West,274,0.0,0.0,90,0.00,,SCT020,0.00,VWS V14.01,2013-02-05 08:31:00,
2013-02-05 03:33:00,56.2,53.3,29.96,West,274,0.0,0.0,90,0.00,,SCT020,0.00,VWS V14.01,2013-02-05 08:33:00,
2013-02-05 03:36:00,56.2,53.3,29.96,West,274,0.0,0.0,90,0.00,,SCT020,0.00,VWS V14.01,2013-02-05 08:36:00,
2013-02-05 03:37:00,56.2,53.3,29.96,West,274,0.0,0.0,90,0.00,,SCT020,0.00,VWS V14.01,2013-02-05 08:37:00,
2013-02-05 03:42:00,56.2,53.3,29.96,West,274,0.0,0.0,90,0.00,,SCT020,0.00,VWS V14.01,2013-02-05 08:42:00,
2013-02-05 03:43:00,55.9,53.0,29.96,West,274,1.0,1.0,90,0.00,,SCT020,0.00,VWS V14.01,2013-02-05 08:43:00,
2013-02-05 03:46:00,55.9,53.0,29.96,West,274,1.0,1.0,90,0.00,,SCT020,0.00,VWS V14.01,2013-02-05 08:46:00,
2013-02-05 03:48:00,55.9,53.0,29.96,West,274,0.0,1.0,90,0.00,,SCT020,0.00,VWS V14.01,2013-02-05 08:48:00,
2013-02-05 03:50:00,55.9,53.0,29.96,West,274,0.0,0.0,90,0.00,,SCT020,0.00,VWS V14.01,2013-02-05 08:50:00,
2013-02-05 03:52:00,55.9,53.0,29.96,West,274,0.0,0.0,90,0.00,,SCT020,0.00,VWS V14.01,2013-02-05 08:52:00,
2013-02-05 03:53:00,55.9,53.0,29.96,West,274,0.0,0.0,90,0.00,,SCT020,0.00,VWS V14.01,2013-02-05 08:53:00,
2013-02-05 03:56:00,55.9,53.0,29.96,West,274,0.0,0.0,90,0.00,,SCT020,0.00,VWS V14.01,2013-02-05 08:56:00,
2013-02-05 03:58:00,55.9,53.0,29.96,WNW,292,0.0,0.0,90,0.00,,SCT020,0.00,VWS V14.01,2013-02-05 08:58:00,
2013-02-05 04:01:00,55.9,53.0,29.96,WNW,292,0.0,0.0,90,0.00,,SCT020,0.00,VWS V14.01,2013-02-05 09:01:00,
2013-02-05 04:02:00,55.9,53.0,29.96,WNW,292,0.0,0.0,90,0.00,,SCT020,0.00,VWS V14.01,2013-02-05 09:02:00,
2013-02-05 04:05:00,55.9,53.0,29.96,WNW,292,0.0,0.0,90,0.00,,SCT020,0.00,VWS V14.01,2013-02-05 09:05:00,
2013-02-05 04:07:00,55.9,53.0,29.96,WNW,292,0.0,0.0,90,0.00,,SCT020,0.00,VWS V14.01,2013-02-05 09:07:00,
2013-02-05 04:09:00,55.9,53.0,29.96,WNW,292,0.0,0.0,90,0.00,,SCT020,0.00,VWS V14.01,2013-02-05 09:09:00,
2013-02-05 04:11:00,55.9,53.3,29.96,WNW,292,0.0,0.0,91,0.00,,SCT020,0.00,VWS V14.01,2013-02-05 09:11:00,
2013-02-05 04:13:00,55.9,53.3,29.96,WNW,292,0.0,0.0,91,0.00,,SCT020,0.00,VWS V14.01,2013-02-05 09:13:00,
2013-02-05 04:14:00,55.9,53.3,29.96,WNW,292,0.0,0.0,91,0.00,,SCT020,0.00,VWS V14.01,2013-02-05 09:14:00,
2013-02-05 04:17:00,55.9,53.3,29.97,WNW,292,0.0,0.0,91,0.00,,SCT020,0.00,VWS V14.01,2013-02-05 09:17:00,
2013-02-05 04:18:00,55.9,53.3,29.97,WNW,292,0.0,0.0,91,0.00,,SCT020,0.00,VWS V14.01,2013-02-05 09:18:00,
2013-02-05 04:20:00,55.9,53.3,29.97,WNW,292,0.0,0.0,91,0.00,,SCT020,0.00,VWS V14.01,2013-02-05 09:20:00,
2013-02-05 04:22:00,55.9,53.3,29.97,WNW,292,0.0,0.0,91,0.00,,SCT020,0.00,VWS V14.01,2013-02-05 09:22:00,
2013-02-05 04:25:00,55.9,53.3,29.97,WNW,292,0.0,0.0,91,0.00,,SCT020,0.00,VWS V14.01,2013-02-05 09:25:00,
2013-02-05 04:27:00,55.9,53.3,29.97,WNW,292,0.0,0.0,91,0.00,,SCT020,0.00,VWS V14.01,2013-02-05 09:27:00,
2013-02-05 04:30:00,55.9,53.3,29.96,WNW,292,0.0,0.0,91,0.00,,SCT020,0.00,VWS V14.01,2013-02-05 09:30:00,
2013-02-05 04:33:00,55.9,53.3,29.96,WNW,292,0.0,0.0,91,0.00,,SCT020,0.00,VWS V14.01,2013-02-05 09:33:00,
2013-02-05 04:34:00,55.9,53.3,29.96,WNW,292,0.0,0.0,91,0.00,,SCT020,0.00,VWS V14.01,2013-02-05 09:34:00,
2013-02-05 04:36:00,55.7,53.1,29.96,WNW,292,0.0,0.0,91,0.00,,SCT020,0.00,VWS V14.01,2013-02-05 09:36:00,
2013-02-05 04:38:00,55.7,53.1,29.96,WNW,292,0.0,0.0,91,0.00,,SCT020,0.00,VWS V14.01,2013-02-05 09:38:00,
2013-02-05 04:40:00,55.7,53.1,29.96,WNW,292,0.0,0.0,91,0.00,,SCT020,0.00,VWS V14.01,2013-02-05 09:40:00,
2013-02-05 04:41:00,55.6,53.0,29.96,WNW,292,0.0,0.0,91,0.00,,SCT020,0.00,VWS V14.01,2013-02-05 09:41:00,
2013-02-05 04:45:00,55.6,53.0,29.96,WNW,292,0.0,0.0,91,0.00,,SCT020,0.00,VWS V14.01,2013-02-05 09:45:00,
2013-02-05 04:49:00,55.6,53.0,29.96,WNW,292,0.0,0.0,91,0.00,,SCT020,0.00,VWS V14.01,2013-02-05 09:49:00,
2013-02-05 04:50:00,55.6,53.0,29.96,WNW,292,0.0,0.0,91,0.00,,SCT020,0.00,VWS V14.01,2013-02-05 09:50:00,
2013-02-05 04:53:00,55.6,53.0,29.96,WNW,292,0.0,0.0,91,0.00,,SCT020,0.00,VWS V14.01,2013-02-05 09:53:00,
2013-02-05 04:56:00,55.6,53.0,29.96,WNW,292,0.0,0.0,91,0.00,,SCT020,0.00,VWS V14.01,2013-02-05 09:56:00,
2013-02-05 04:57:00,55.6,53.0,29.96,WNW,292,0.0,0.0,91,0.00,,SCT020,0.00,VWS V14.01,2013-02-05 09:57:00,
2013-02-05 04:58:00,55.6,53.0,29.96,WNW,292,0.0,0.0,91,0.00,,SCT020,0.00,VWS V14.01,2013-02-05 09:58:00,
2013-02-05 05:02:00,55.6,53.0,29.96,WNW,292,0.0,0.0,91,0.00,,SCT020,0.00,VWS V14.01,2013-02-05 10:02:00,
2013-02-05 05:03:00,55.6,53.0,29.96,WNW,292,0.0,0.0,91,0.00,,SCT020,0.00,VWS V14.01,2013-02-05 10:03:00,
2013-02-05 05:04:00,55.6,53.0,29.96,WNW,292,0.0,0.0,91,0.00,,SCT020,0.00,VWS V14.01,2013-02-05 10:04:00,
2013-02-05 05:05:00,55.6,53.0,29.96,WNW,292,0.0,0.0,91,0.00,,SCT020,0.00,VWS V14.01,2013-02-05 10:05:00,
2013-02-05 05:08:00,55.6,53.0,29.96,WNW,292,0.0,0.0,91,0.00,,SCT020,0.00,VWS V14.01,2013-02-05 10:08:00,
2013-02-05 05:10:00,55.6,53.0,29.96,WNW,292,0.0,0.0,91,0.00,,SCT020,0.00,VWS V14.01,2013-02-05 10:10:00,
2013-02-05 05:13:00,55.6,53.0,29.96,WNW,292,0.0,0.0,91,0.00,,SCT020,0.00,VWS V14.01,2013-02-05 10:13:00,
2013-02-05 05:16:00,55.0,52.4,29.97,WNW,292,0.0,0.0,91,0.00,,SCT020,0.00,VWS V14.01,2013-02-05 10:16:00,
2013-02-05 05:18:00,55.0,52.4,29.97,WNW,292,0.0,0.0,91,0.00,,SCT020,0.00,VWS V14.01,2013-02-05 10:18:00,
2013-02-05 05:20:00,55.0,52.4,29.97,WNW,292,0.0,0.0,91,0.00,,SCT020,0.00,VWS V14.01,2013-02-05 10:20:00,
2013-02-05 05:21:00,55.0,52.4,29.97,WNW,292,0.0,0.0,91,0.00,,SCT020,0.00,VWS V14.01,2013-02-05 10:21:00,
2013-02-05 05:26:00,55.0,52.4,29.97,WNW,292,0.0,0.0,91,0.00,,SCT020,0.00,VWS V14.01,2013-02-05 10:26:00,
2013-02-05 05:27:00,55.0,52.4,29.97,WNW,292,0.0,0.0,91,0.00,,SCT020,0.00,VWS V14.01,2013-02-05 10:27:00,
2013-02-05 05:32:00,55.0,52.4,29.97,WNW,292,0.0,0.0,91,0.00,,SCT020,0.00,VWS V14.01,2013-02-05 10:32:00,
2013-02-05 05:33:00,55.0,52.4,29.97,WNW,292,0.0,0.0,91,0.00,,SCT020,0.00,VWS V14.01,2013-02-05 10:33:00,
2013-02-05 05:37:00,55.0,52.4,29.97,WNW,292,0.0,0.0,91,0.00,,SCT020,0.00,VWS V14.01,2013-02-05 10:37:00,
2013-02-05 05:39:00,55.0,52.4,29.97,WNW,292,0.0,0.0,91,0.00,,SCT020,0.00,VWS V14.01,2013-02-05 10:39:00,
2013-02-05 05:43:00,55.0,52.7,29.97,WNW,292,0.0,0.0,92,0.00,,SCT020,0.00,VWS V14.01,2013-02-05 10:43:00,
2013-02-05 05:44:00,55.0,52.7,29.97,WNW,292,0.0,0.0,92,0.00,,SCT020,0.00,VWS V14.01,2013-02-05 10:44:00,
2013-02-05 05:47:00,55.0,52.7,29.97,WNW,292,0.0,0.0,92,0.00,,SCT020,0.00,VWS V14.01,2013-02-05 10:47:00,
2013-02-05 05:50:00,55.1,52.8,29.97,WNW,292,0.0,0.0,92,0.00,,SCT020,0.00,VWS V14.01,2013-02-05 10:50:00,
2013-02-05 05:52:00,55.1,52.8,29.97,WNW,292,0.0,0.0,92,0.00,,SCT020,0.00,VWS V14.01,2013-02-05 10:52:00,
2013-02-05 05:53:00,55.1,52.8,29.97,WNW,292,0.0,0.0,92,0.00,,SCT020,0.00,VWS V14.01,2013-02-05 10:53:00,
2013-02-05 05:55:00,55.1,52.8,29.97,WNW,292,0.0,0.0,92,0.00,,SCT020,0.00,VWS V14.01,2013-02-05 10:55:00,
2013-02-05 05:59:00,55.1,52.8,29.97,WNW,292,0.0,0.0,92,0.00,,SCT020,0.00,VWS V14.01,2013-02-05 10:59:00,
2013-02-05 06:02:00,55.1,52.8,29.97,WNW,292,0.0,0.0,92,0.00,,SCT020,0.00,VWS V14.01,2013-02-05 11:02:00,
2013-02-05 06:05:00,55.1,52.8,29.97,WNW,292,0.0,0.0,92,0.00,,SCT020,0.00,VWS V14.01,2013-02-05 11:05:00,
2013-02-05 06:07:00,55.1,52.8,29.97,WNW,292,0.0,0.0,92,0.00,,SCT020,0.00,VWS V14.01,2013-02-05 11:07:00,
2013-02-05 06:08:00,55.1,52.8,29.97,WNW,292,0.0,0.0,92,0.00,,SCT020,0.00,VWS V14.01,2013-02-05 11:08:00,
2013-02-05 06:11:00,55.1,52.8,29.97,WNW,292,0.0,0.0,92,0.00,,SCT020,0.00,VWS V14.01,2013-02-05 11:11:00,
2013-02-05 06:13:00,55.1,52.8,29.97,WNW,292,0.0,0.0,92,0.00,,SCT020,0.00,VWS V14.01,2013-02-05 11:13:00,
2013-02-05 06:14:00,55.1,52.8,29.97,WNW,292,0.0,0.0,92,0.00,,SCT020,0.00,VWS V14.01,2013-02-05 11:14:00,
2013-02-05 06:18:00,55.1,52.8,29.97,WNW,292,0.0,0.0,92,0.00,,SCT020,0.00,VWS V14.01,2013-02-05 11:18:00,
2013-02-05 06:20:00,55.1,52.8,29.97,WNW,292,0.0,0.0,92,0.00,,SCT020,0.00,VWS V14.01,2013-02-05 11:20:00,
2013-02-05 06:25:00,55.1,52.8,29.97,WNW,292,0.0,0.0,92,0.00,,SCT020,0.00,VWS V14.01,2013-02-05 11:25:00,
2013-02-05 06:26:00,55.1,52.8,29.97,WNW,292,0.0,0.0,92,0.00,,SCT020,0.00,VWS V14.01,2013-02-05 11:26:00,
2013-02-05 06:31:00,55.1,52.8,29.98,WNW,292,0.0,0.0,92,0.00,,SCT020,0.00,VWS V14.01,2013-02-05 11:31:00,
2013-02-05 06:32:00,55.1,52.8,29.98,WNW,292,0.0,0.0,92,0.00,,SCT020,0.00,VWS V14.01,2013-02-05 11:32:00,
2013-02-05 06:35:00,55.1,52.8,29.98,WNW,292,0.0,0.0,92,0.00,,SCT020,0.00,VWS V14.01,2013-02-05 11:35:00,
2013-02-05 06:36:00,54.7,52.4,29.98,WNW,292,0.0,0.0,92,0.00,,SCT020,0.00,VWS V14.01,2013-02-05 11:36:00,
2013-02-05 06:39:00,54.7,52.4,29.98,WNW,292,0.0,0.0,92,0.00,,SCT020,0.00,VWS V14.01,2013-02-05 11:39:00,
2013-02-05 06:41:00,54.7,52.4,29.98,WNW,292,0.0,0.0,92,0.00,,SCT020,0.00,VWS V14.01,2013-02-05 11:41:00,
2013-02-05 06:42:00,54.7,52.4,29.98,WNW,292,0.0,0.0,92,0.00,,SCT020,0.00,VWS V14.01,2013-02-05 11:42:00,
2013-02-05 06:47:00,54.7,52.4,29.98,WNW,292,0.0,0.0,92,0.00,,SCT020,0.00,VWS V14.01,2013-02-05 11:47:00,
2013-02-05 06:48:00,54.7,52.4,29.98,WNW,292,0.0,0.0,92,0.00,,SCT020,0.00,VWS V14.01,2013-02-05 11:48:00,
2013-02-05 06:49:00,54.7,52.4,29.98,WNW,292,0.0,0.0,92,0.00,,SCT020,0.00,VWS V14.01,2013-02-05 11:49:00,
2013-02-05 06:50:00,54.7,52.4,29.98,WNW,292,0.0,0.0,92,0.00,,SCT020,0.00,VWS V14.01,2013-02-05 11:50:00,
2013-02-05 06:53:00,54.7,52.4,29.98,WNW,292,0.0,0.0,92,0.00,,SCT020,0.00,VWS V14.01,2013-02-05 11:53:00,
2013-02-05 06:55:00,54.7,52.4,29.98,WNW,292,0.0,0.0,92,0.00,,SCT020,0.00,VWS V14.01,2013-02-05 11:55:00,
2013-02-05 06:56:00,54.7,52.4,29.98,WNW,292,0.0,0.0,92,0.00,,SCT020,0.00,VWS V14.01,2013-02-05 11:56:00,
2013-02-05 06:57:00,54.7,52.4,29.98,WNW,292,0.0,0.0,92,0.00,,SCT020,0.00,VWS V14.01,2013-02-05 11:57:00,
2013-02-05 07:00:00,54.7,52.4,29.98,WNW,292,0.0,0.0,92,0.00,,SCT020,0.00,VWS V14.01,2013-02-05 12:00:00,
2013-02-05 07:04:00,54.7,52.4,29.98,WNW,292,0.0,0.0,92,0.00,,SCT020,0.00,VWS V14.01,2013-02-05 12:04:00,
2013-02-05 07:07:00,54.7,52.4,29.98,WNW,292,0.0,0.0,92,0.00,,SCT020,0.00,VWS V14.01,2013-02-05 12:07:00,
2013-02-05 07:08:00,54.7,52.4,29.98,WNW,292,0.0,0.0,92,0.00,,SCT020,0.00,VWS V14.01,2013-02-05 12:08:00,
2013-02-05 07:10:00,54.7,52.4,29.98,WNW,292,0.0,0.0,92,0.00,,SCT020,0.00,VWS V14.01,2013-02-05 12:10:00,
2013-02-05 07:13:00,55.6,53.3,29.98,WNW,294,0.0,0.0,92,0.00,,SCT020,0.00,VWS V14.01,2013-02-05 12:13:00,
2013-02-05 07:14:00,55.6,53.3,29.98,WNW,294,0.0,0.0,92,0.00,,SCT020,0.00,VWS V14.01,2013-02-05 12:14:00,
2013-02-05 07:18:00,55.6,53.3,29.98,WNW,294,0.0,0.0,92,0.00,,SCT020,0.00,VWS V14.01,2013-02-05 12:18:00,
2013-02-05 07:19:00,55.6,53.3,29.98,WNW,294,0.0,0.0,92,0.00,,SCT020,0.00,VWS V14.01,2013-02-05 12:19:00,
2013-02-05 07:22:00,55.6,53.3,29.98,WNW,294,0.0,0.0,92,0.00,,SCT020,0.00,VWS V14.01,2013-02-05 12:22:00,
2013-02-05 07:23:00,55.6,53.3,29.98,WNW,294,0.0,0.0,92,0.00,,SCT020,0.00,VWS V14.01,2013-02-05 12:23:00,
2013-02-05 07:25:00,55.6,53.3,29.98,WNW,294,0.0,0.0,92,0.00,,SCT020,0.00,VWS V14.01,2013-02-05 12:25:00,
2013-02-05 07:28:00,55.6,53.3,29.98,WNW,294,0.0,0.0,92,0.00,,SCT020,0.00,VWS V14.01,2013-02-05 12:28:00,
2013-02-05 07:30:00,55.6,53.3,29.98,WNW,294,0.0,0.0,92,0.00,,SCT020,0.00,VWS V14.01,2013-02-05 12:30:00,
2013-02-05 07:31:00,55.6,53.3,29.98,WNW,294,0.0,0.0,92,0.00,,SCT020,0.00,VWS V14.01,2013-02-05 12:31:00,
2013-02-05 07:33:00,55.6,53.3,29.98,WNW,294,0.0,0.0,92,0.00,,SCT020,0.00,VWS V14.01,2013-02-05 12:33:00,
2013-02-05 07:34:00,55.6,53.3,29.98,WNW,294,0.0,0.0,92,0.00,,SCT020,0.00,VWS V14.01,2013-02-05 12:34:00,
2013-02-05 07:38:00,55.6,53.3,29.98,WNW,294,0.0,0.0,92,0.00,,SCT020,0.00,VWS V14.01,2013-02-05 12:38:00,
2013-02-05 07:39:00,55.6,53.3,29.98,WNW,294,0.0,0.0,92,0.00,,SCT020,0.00,VWS V14.01,2013-02-05 12:39:00,
2013-02-05 07:41:00,55.6,53.3,29.98,WNW,294,0.0,0.0,92,0.00,,SCT020,0.00,VWS V14.01,2013-02-05 12:41:00,
2013-02-05 07:44:00,55.6,53.3,29.98,WNW,294,0.0,0.0,92,0.00,,SCT020,0.00,VWS V14.01,2013-02-05 12:44:00,
2013-02-05 07:45:00,55.6,53.3,29.99,WNW,294,0.0,0.0,92,0.00,,SCT020,0.00,VWS V14.01,2013-02-05 12:45:00,
2013-02-05 07:48:00,55.6,53.3,29.99,WNW,294,0.0,0.0,92,0.00,,SCT020,0.00,VWS V14.01,2013-02-05 12:48:00,
2013-02-05 07:53:00,55.6,53.3,29.99,WNW,294,0.0,0.0,92,0.00,,SCT020,0.00,VWS V14.01,2013-02-05 12:53:00,
2013-02-05 07:55:00,55.6,52.4,29.99,North,7,0.0,0.0,89,0.00,,SCT020,0.00,VWS V14.01,2013-02-05 12:55:00,
2013-02-05 07:58:00,55.6,52.4,29.99,North,7,0.0,0.0,89,0.00,,SCT020,0.00,VWS V14.01,2013-02-05 12:58:00,
2013-02-05 07:59:00,55.6,52.4,29.99,North,7,0.0,0.0,89,0.00,,SCT020,0.00,VWS V14.01,2013-02-05 12:59:00,
2013-02-05 08:00:00,55.6,52.4,29.99,North,7,0.0,0.0,89,0.00,,SCT020,0.00,VWS V14.01,2013-02-05 13:00:00,
2013-02-05 08:05:00,55.6,52.4,29.99,NE,42,2.0,2.0,89,0.00,,SCT020,0.00,VWS V14.01,2013-02-05 13:05:00,
2013-02-05 08:06:00,55.6,52.4,29.99,NE,42,2.0,2.0,89,0.00,,SCT020,0.00,VWS V14.01,2013-02-05 13:06:00,
2013-02-05 08:08:00,55.6,52.4,29.99,NE,42,2.0,2.0,89,0.00,,SCT020,0.00,VWS V14.01,2013-02-05 13:08:00,
2013-02-05 08:10:00,55.6,52.4,29.99,NE,42,2.0,2.0,89,0.00,,SCT020,0.00,VWS V14.01,2013-02-05 13:10:00,
2013-02-05 08:11:00,55.6,52.4,29.99,NE,42,2.0,2.0,89,0.00,,SCT020,0.00,VWS V14.01,2013-02-05 13:11:00,
2013-02-05 08:14:00,55.6,52.4,29.99,NE,42,2.0,2.0,89,0.00,,SCT020,0.00,VWS V14.01,2013-02-05 13:14:00,
2013-02-05 08:15:00,55.6,52.4,29.99,NE,42,2.0,2.0,89,0.00,,SCT020,0.00,VWS V14.01,2013-02-05 13:15:00,
2013-02-05 08:19:00,55.6,52.4,29.99,NE,34,1.0,1.0,89,0.00,,SCT020,0.00,VWS V14.01,2013-02-05 13:19:00,
2013-02-05 08:22:00,55.6,52.4,29.99,NE,34,1.0,1.0,89,0.00,,SCT020,0.00,VWS V14.01,2013-02-05 13:22:00,
2013-02-05 08:24:00,55.6,52.4,29.99,NE,34,1.0,1.0,89,0.00,,SCT020,0.00,VWS V14.01,2013-02-05 13:24:00,
2013-02-05 08:26:00,55.6,52.4,29.99,NE,34,1.0,1.0,89,0.00,,SCT020,0.00,VWS V14.01,2013-02-05 13:26:00,
2013-02-05 08:27:00,55.6,52.4,29.99,NE,34,1.0,1.0,89,0.00,,SCT020,0.00,VWS V14.01,2013-02-05 13:27:00,
2013-02-05 08:31:00,55.6,52.4,30.00,NE,34,1.0,1.0,89,0.00,,SCT020,0.00,VWS V14.01,2013-02-05 13:31:00,
2013-02-05 08:33:00,55.6,52.4,30.00,NE,34,1.0,1.0,89,0.00,,SCT020,0.00,VWS V14.01,2013-02-05 13:33:00,
2013-02-05 08:34:00,55.6,52.4,30.00,NE,34,1.0,1.0,89,0.00,,SCT020,0.00,VWS V14.01,2013-02-05 13:34:00,
2013-02-05 08:39:00,65.6,54.4,30.00,NE,34,1.0,2.0,67,0.00,,SCT020,0.00,VWS V14.01,2013-02-05 13:39:00,
2013-02-05 08:40:00,65.6,54.4,30.00,NE,34,1.0,2.0,67,0.00,,SCT020,0.00,VWS V14.01,2013-02-05 13:40:00,
2013-02-05 08:43:00,66.1,54.8,30.00,NE,34,1.0,1.0,67,0.00,,SCT020,0.00,VWS V14.01,2013-02-05 13:43:00,
2013-02-05 08:44:00,66.3,55.0,30.00,NE,34,1.0,1.0,67,0.00,,SCT020,0.00,VWS V14.01,2013-02-05 13:44:00,
2013-02-05 08:45:00,66.3,55.0,30.00,NE,34,1.0,1.0,67,0.00,,SCT020,0.00,VWS V14.01,2013-02-05 13:45:00,
2013-02-05 08:49:00,66.8,55.5,30.00,NE,34,0.0,1.0,67,0.00,,SCT020,0.00,VWS V14.01,2013-02-05 13:49:00,
2013-02-05 08:53:00,66.8,55.5,30.00,NE,34,0.0,0.0,67,0.00,,SCT020,0.00,VWS V14.01,2013-02-05 13:53:00,
2013-02-05 08:54:00,66.8,55.5,30.00,NE,34,0.0,0.0,67,0.00,,SCT020,0.00,VWS V14.01,2013-02-05 13:54:00,
2013-02-05 08:55:00,66.8,55.5,30.00,NE,34,0.0,0.0,67,0.00,,SCT020,0.00,VWS V14.01,2013-02-05 13:55:00,
2013-02-05 08:58:00,66.8,55.5,30.00,NE,34,0.0,0.0,67,0.00,,SCT020,0.00,VWS V14.01,2013-02-05 13:58:00,
2013-02-05 08:59:00,66.8,55.5,30.00,NE,34,0.0,0.0,67,0.00,,SCT020,0.00,VWS V14.01,2013-02-05 13:59:00,
2013-02-05 09:00:00,66.8,55.5,30.00,NE,34,0.0,0.0,67,0.00,,SCT020,0.00,VWS V14.01,2013-02-05 14:00:00,
2013-02-05 09:04:00,66.8,55.5,30.00,NE,34,0.0,0.0,67,0.00,,SCT020,0.00,VWS V14.01,2013-02-05 14:04:00,
2013-02-05 09:05:00,66.8,55.5,30.00,NE,34,0.0,0.0,67,0.00,,SCT020,0.00,VWS V14.01,2013-02-05 14:05:00,
2013-02-05 09:07:00,66.8,55.5,30.00,NE,34,0.0,0.0,67,0.00,,SCT020,0.00,VWS V14.01,2013-02-05 14:07:00,
2013-02-05 09:08:00,66.8,55.5,30.00,NE,34,0.0,0.0,67,0.00,,SCT020,0.00,VWS V14.01,2013-02-05 14:08:00,
2013-02-05 09:10:00,66.8,55.5,30.00,NE,34,0.0,0.0,67,0.00,,SCT020,0.00,VWS V14.01,2013-02-05 14:10:00,
2013-02-05 09:13:00,66.8,55.5,30.00,NE,34,0.0,0.0,67,0.00,,SCT020,0.00,VWS V14.01,2013-02-05 14:13:00,
2013-02-05 09:14:00,66.8,55.5,30.00,NE,38,2.0,2.0,67,0.00,,SCT020,0.00,VWS V14.01,2013-02-05 14:14:00,
2013-02-05 09:15:00,66.8,55.5,30.01,NE,38,2.0,2.0,67,0.00,,SCT020,0.00,VWS V14.01,2013-02-05 14:15:00,
2013-02-05 09:19:00,66.8,55.5,30.01,NE,38,2.0,2.0,67,0.00,,SCT020,0.00,VWS V14.01,2013-02-05 14:19:00,
2013-02-05 09:21:00,66.8,55.5,30.01,NE,38,2.0,2.0,67,0.00,,SCT020,0.00,VWS V14.01,2013-02-05 14:21:00,
2013-02-05 09:22:00,66.8,55.5,30.01,NE,38,2.0,2.0,67,0.00,,SCT020,0.00,VWS V14.01,2013-02-05 14:22:00,
2013-02-05 09:24:00,66.8,55.5,30.01,ENE,62,2.0,2.0,67,0.00,,SCT020,0.00,VWS V14.01,2013-02-05 14:24:00,
2013-02-05 09:26:00,66.8,55.5,30.01,ENE,62,2.0,2.0,67,0.00,,SCT020,0.00,VWS V14.01,2013-02-05 14:26:00,
2013-02-05 09:28:00,66.8,55.5,30.01,ENE,62,2.0,2.0,67,0.00,,SCT020,0.00,VWS V14.01,2013-02-05 14:28:00,
2013-02-05 09:31:00,66.8,55.5,30.01,ENE,62,2.0,2.0,67,0.00,,SCT020,0.00,VWS V14.01,2013-02-05 14:31:00,
2013-02-05 09:34:00,66.8,55.5,30.01,ENE,62,2.0,2.0,67,0.00,,SCT020,0.00,VWS V14.01,2013-02-05 14:34:00,
2013-02-05 09:36:00,66.8,55.5,30.01,ENE,62,2.0,2.0,67,0.00,,SCT020,0.00,VWS V14.01,2013-02-05 14:36:00,
2013-02-05 09:37:00,66.8,55.5,30.01,ENE,58,2.0,2.0,67,0.00,,SCT020,0.00,VWS V14.01,2013-02-05 14:37:00,
2013-02-05 09:40:00,66.8,55.5,30.01,ENE,58,2.0,2.0,67,0.00,,SCT020,0.00,VWS V14.01,2013-02-05 14:40:00,
2013-02-05 09:42:00,66.8,55.5,30.01,ENE,58,2.0,2.0,67,0.00,,SCT020,0.00,VWS V14.01,2013-02-05 14:42:00,
2013-02-05 09:43:00,66.8,55.5,30.01,ENE,58,2.0,2.0,67,0.00,,SCT020,0.00,VWS V14.01,2013-02-05 14:43:00,
2013-02-05 09:48:00,66.8,55.5,30.01,ENE,58,2.0,2.0,67,0.00,,SCT020,0.00,VWS V14.01,2013-02-05 14:48:00,
2013-02-05 09:50:00,66.8,55.5,30.01,ENE,58,2.0,2.0,67,0.00,,SCT020,0.00,VWS V14.01,2013-02-05 14:50:00,
2013-02-05 09:52:00,66.8,55.5,30.01,NE,41,0.0,0.0,67,0.00,,SCT020,0.00,VWS V14.01,2013-02-05 14:52:00,
2013-02-05 09:53:00,66.8,55.5,30.01,NE,41,0.0,0.0,67,0.00,,SCT020,0.00,VWS V14.01,2013-02-05 14:53:00,
2013-02-05 09:55:00,66.8,55.5,30.01,NE,42,1.0,1.0,67,0.00,,SCT020,0.00,VWS V14.01,2013-02-05 14:55:00,
2013-02-05 09:58:00,66.8,55.5,30.01,NE,42,1.0,1.0,67,0.00,,SCT020,0.00,VWS V14.01,2013-02-05 14:58:00,
2013-02-05 09:59:00,66.8,55.5,30.01,NE,42,1.0,1.0,67,0.00,,SCT020,0.00,VWS V14.01,2013-02-05 14:59:00,
2013-02-05 10:00:00,66.8,55.5,30.01,NE,42,1.0,1.0,67,0.00,,SCT020,0.00,VWS V14.01,2013-02-05 15:00:00,
2013-02-05 10:04:00,66.8,55.5,30.01,NE,42,1.0,1.0,67,0.00,,SCT020,0.00,VWS V14.01,2013-02-05 15:04:00,
2013-02-05 10:05:00,66.8,55.5,30.01,ENE,72,2.0,2.0,67,0.00,,SCT020,0.00,VWS V14.01,2013-02-05 15:05:00,
2013-02-05 10:06:00,66.8,55.5,30.01,ESE,117,2.0,2.0,67,0.00,,SCT020,0.00,VWS V14.01,2013-02-05 15:06:00,
2013-02-05 10:09:00,74.2,62.5,30.01,SSE,150,1.0,2.0,67,0.00,,SCT020,0.00,VWS V14.01,2013-02-05 15:09:00,
2013-02-05 10:10:00,74.4,56.2,30.01,SE,145,1.0,2.0,53,0.00,,SCT020,0.00,VWS V14.01,2013-02-05 15:10:00,
2013-02-05 10:14:00,74.7,56.5,30.01,East,95,4.0,5.0,53,0.00,,SCT020,0.00,VWS V14.01,2013-02-05 15:14:00,
2013-02-05 10:16:00,74.6,56.4,30.01,South,185,3.0,3.0,53,0.00,,SCT020,0.00,VWS V14.01,2013-02-05 15:16:00,
2013-02-05 10:17:00,74.6,56.4,30.01,East,95,2.0,3.0,53,0.00,,SCT020,0.00,VWS V14.01,2013-02-05 15:17:00,
2013-02-05 10:22:00,74.6,56.4,30.01,East,99,2.0,4.0,53,0.00,,SCT020,0.00,VWS V14.01,2013-02-05 15:22:00,
2013-02-05 10:24:00,74.6,56.4,30.01,ESE,114,4.0,4.0,53,0.00,,SCT020,0.00,VWS V14.01,2013-02-05 15:24:00,
2013-02-05 10:26:00,74.6,56.4,30.01,South,169,0.0,2.0,53,0.00,,SCT020,0.00,VWS V14.01,2013-02-05 15:26:00,
2013-02-05 10:28:00,74.7,56.5,30.01,South,169,1.0,1.0,53,0.00,,SCT020,0.00,VWS V14.01,2013-02-05 15:28:00,
2013-02-05 10:29:00,74.7,56.5,30.01,South,169,1.0,1.0,53,0.00,,SCT020,0.00,VWS V14.01,2013-02-05 15:29:00,
2013-02-05 10:32:00,75.1,56.8,30.00,SE,141,0.0,3.0,53,0.00,,SCT020,0.00,VWS V14.01,2013-02-05 15:32:00,
2013-02-05 10:33:00,75.1,56.8,30.00,SE,141,0.0,0.0,53,0.00,,SCT020,0.00,VWS V14.01,2013-02-05 15:33:00,
2013-02-05 10:36:00,75.4,57.1,30.00,NE,42,2.0,2.0,53,0.00,,SCT020,0.00,VWS V14.01,2013-02-05 15:36:00,
2013-02-05 10:37:00,75.4,57.1,30.00,East,95,7.0,7.0,53,0.00,,SCT020,0.00,VWS V14.01,2013-02-05 15:37:00,
2013-02-05 10:42:00,75.3,57.0,30.00,SSE,150,1.0,1.0,53,0.00,,SCT020,0.00,VWS V14.01,2013-02-05 15:42:00,
2013-02-05 10:43:00,75.3,57.0,30.00,SSE,150,1.0,1.0,53,0.00,,SCT020,0.00,VWS V14.01,2013-02-05 15:43:00,
2013-02-05 10:45:00,75.8,56.4,30.00,SE,140,3.0,4.0,51,0.00,,SCT020,0.00,VWS V14.01,2013-02-05 15:45:00,
2013-02-05 10:48:00,75.8,56.9,30.00,SSE,150,1.0,2.0,52,0.00,,SCT020,0.00,VWS V14.01,2013-02-05 15:48:00,
2013-02-05 10:52:00,76.1,57.2,30.00,East,90,0.0,2.0,52,0.00,,SCT020,0.00,VWS V14.01,2013-02-05 15:52:00,
2013-02-05 10:53:00,76.1,57.2,30.00,ESE,117,3.0,3.0,52,0.00,,SCT020,0.00,VWS V14.01,2013-02-05 15:53:00,
2013-02-05 10:54:00,76.1,57.2,30.00,South,174,1.0,3.0,52,0.00,,SCT020,0.00,VWS V14.01,2013-02-05 15:54:00,
2013-02-05 10:58:00,76.1,57.2,30.00,South,174,1.0,1.0,52,0.00,,SCT020,0.00,VWS V14.01,2013-02-05 15:58:00,
2013-02-05 11:03:00,76.7,57.8,30.00,SSE,150,2.0,5.0,52,0.00,,SCT020,0.00,VWS V14.01,2013-02-05 16:03:00,
2013-02-05 11:04:00,76.5,57.6,30.00,ESE,102,3.0,5.0,52,0.00,,SCT020,0.00,VWS V14.01,2013-02-05 16:04:00,
2013-02-05 11:06:00,76.5,57.6,30.00,ESE,112,3.0,3.0,52,0.00,,SCT020,0.00,VWS V14.01,2013-02-05 16:06:00,
2013-02-05 11:11:00,76.7,57.2,30.00,SE,124,2.0,5.0,51,0.00,,SCT020,0.00,VWS V14.01,2013-02-05 16:11:00,
2013-02-05 11:13:00,76.7,57.2,30.00,South,172,3.0,3.0,51,0.00,,SCT020,0.00,VWS V14.01,2013-02-05 16:13:00,
2013-02-05 11:16:00,76.7,57.2,30.00,ESE,123,5.0,5.0,51,0.00,,SCT020,0.00,VWS V14.01,2013-02-05 16:16:00,
2013-02-05 11:18:00,76.7,56.7,30.00,South,185,3.0,3.0,50,0.00,,SCT020,0.00,VWS V14.01,2013-02-05 16:18:00,
2013-02-05 11:20:00,77.2,57.1,30.00,East,86,2.0,3.0,50,0.00,,SCT020,0.00,VWS V14.01,2013-02-05 16:20:00,
2013-02-05 11:21:00,77.2,57.1,30.00,South,169,2.0,2.0,50,0.00,,SCT020,0.00,VWS V14.01,2013-02-05 16:21:00,
2013-02-05 11:24:00,77.4,57.3,30.00,ENE,61,2.0,3.0,50,0.00,,SCT020,0.00,VWS V14.01,2013-02-05 16:24:00,
2013-02-05 11:27:00,77.2,57.1,30.00,East,90,2.0,5.0,50,0.00,,SCT020,0.00,VWS V14.01,2013-02-05 16:27:00,
2013-02-05 11:29:00,77.2,57.7,30.00,SE,140,1.0,3.0,51,0.00,,SCT020,0.00,VWS V14.01,2013-02-05 16:29:00,
2013-02-05 11:31:00,77.4,57.9,30.00,WNW,284,2.0,2.0,51,0.00,,SCT020,0.00,VWS V14.01,2013-02-05 16:31:00,
2013-02-05 11:34:00,77.4,57.9,30.00,East,90,2.0,3.0,51,0.00,,SCT020,0.00,VWS V14.01,2013-02-05 16:34:00,
2013-02-05 11:39:00,77.7,57.6,30.00,SSE,165,2.0,2.0,50,0.00,,SCT020,0.00,VWS V14.01,2013-02-05 16:39:00,
2013-02-05 11:44:00,77.9,57.2,30.00,SSE,150,2.0,2.0,49,0.00,,SCT020,0.00,VWS V14.01,2013-02-05 16:44:00,
2013-02-05 11:45:00,77.9,57.8,29.99,SE,136,3.0,3.0,50,0.00,,SCT020,0.00,VWS V14.01,2013-02-05 16:45:00,
2013-02-05 11:46:00,78.1,58.0,29.99,SSW,195,2.0,3.0,50,0.00,,SCT020,0.00,VWS V14.01,2013-02-05 16:46:00,
2013-02-05 11:50:00,78.1,58.0,29.99,WSW,237,0.0,2.0,50,0.00,,SCT020,0.00,VWS V14.01,2013-02-05 16:50:00,
2013-02-05 11:52:00,78.1,58.0,29.99,ESE,103,4.0,5.0,50,0.00,,SCT020,0.00,VWS V14.01,2013-02-05 16:52:00,
2013-02-05 11:54:00,78.1,58.0,29.99,ENE,69,3.0,4.0,50,0.00,,SCT020,0.00,VWS V14.01,2013-02-05 16:54:00,
2013-02-05 11:56:00,77.4,57.9,29.99,SSE,152,1.0,6.0,51,0.00,,SCT020,0.00,VWS V14.01,2013-02-05 16:56:00,
2013-02-05 12:00:00,77.4,57.9,29.99,SE,143,1.0,1.0,51,0.00,,SCT020,0.00,VWS V14.01,2013-02-05 17:00:00,
2013-02-05 12:02:00,77.7,56.5,29.99,WSW,240,0.0,1.0,48,0.00,,SCT020,0.00,VWS V14.01,2013-02-05 17:02:00,
2013-02-05 12:04:00,77.9,56.7,29.99,WSW,241,1.0,1.0,48,0.00,,SCT020,0.00,VWS V14.01,2013-02-05 17:04:00,
2013-02-05 12:06:00,77.9,56.7,29.99,WSW,241,1.0,1.0,48,0.00,,SCT020,0.00,VWS V14.01,2013-02-05 17:06:00,
2013-02-05 12:08:00,78.1,56.8,29.99,West,274,1.0,1.0,48,0.00,,SCT020,0.00,VWS V14.01,2013-02-05 17:08:00,
2013-02-05 12:11:00,78.3,57.0,29.99,East,86,3.0,5.0,48,0.00,,SCT020,0.00,VWS V14.01,2013-02-05 17:11:00,
2013-02-05 12:13:00,78.3,56.4,29.99,East,93,1.0,2.0,47,0.00,,SCT020,0.00,VWS V14.01,2013-02-05 17:13:00,
2013-02-05 12:14:00,78.3,56.4,29.99,East,99,2.0,3.0,47,0.00,,SCT020,0.00,VWS V14.01,2013-02-05 17:14:00,
2013-02-05 12:18:00,77.9,57.8,29.98,East,93,6.0,7.0,50,0.00,,SCT020,0.00,VWS V14.01,2013-02-05 17:18:00,
2013-02-05 12:22:00,77.7,57.6,29.98,East,88,1.0,1.0,50,0.00,,SCT020,0.00,VWS V14.01,2013-02-05 17:22:00,
2013-02-05 12:23:00,77.7,57.6,29.98,East,88,1.0,1.0,50,0.00,,SCT020,0.00,VWS V14.01,2013-02-05 17:23:00,
2013-02-05 12:27:00,78.6,57.3,29.98,SE,133,3.0,3.0,48,0.00,,SCT020,0.00,VWS V14.01,2013-02-05 17:27:00,
2013-02-05 12:28:00,78.6,56.7,29.98,ENE,61,1.0,4.0,47,0.00,,SCT020,0.00,VWS V14.01,2013-02-05 17:28:00,
2013-02-05 12:30:00,78.5,56.6,29.97,ESE,110,1.0,2.0,47,0.00,,SCT020,0.00,VWS V14.01,2013-02-05 17:30:00,
2013-02-05 12:32:00,78.6,56.7,29.97,SSE,164,1.0,5.0,47,0.00,,SCT020,0.00,VWS V14.01,2013-02-05 17:32:00,
2013-02-05 12:35:00,78.8,56.3,29.97,SE,138,1.0,2.0,46,0.00,,SCT020,0.00,VWS V14.01,2013-02-05 17:35:00,
2013-02-05 12:37:00,79.2,56.7,29.97,SE,138,1.0,1.0,46,0.00,,SCT020,0.00,VWS V14.01,2013-02-05 17:37:00,
2013-02-05 12:41:00,79.2,56.7,29.97,SSW,205,1.0,1.0,46,0.00,,SCT020,0.00,VWS V14.01,2013-02-05 17:41:00,
2013-02-05 12:42:00,79.2,56.7,29.97,SSW,205,1.0,1.0,46,0.00,,SCT020,0.00,VWS V14.01,2013-02-05 17:42:00,
2013-02-05 12:43:00,79.2,56.7,29.97,SSW,205,1.0,1.0,46,0.00,,SCT020,0.00,VWS V14.01,2013-02-05 17:43:00,
2013-02-05 12:45:00,79.2,56.7,29.97,West,265,0.0,1.0,46,0.00,,SCT020,0.00,VWS V14.01,2013-02-05 17:45:00,
2013-02-05 12:46:00,79.4,57.4,29.97,NW,323,1.0,2.0,47,0.00,,SCT020,0.00,VWS V14.01,2013-02-05 17:46:00,
2013-02-05 12:47:00,79.4,57.4,29.97,SE,138,0.0,1.0,47,0.00,,SCT020,0.00,VWS V14.01,2013-02-05 17:47:00,
2013-02-05 12:49:00,79.6,57.6,29.97,SW,233,0.0,3.0,47,0.00,,SCT020,0.00,VWS V14.01,2013-02-05 17:49:00,
2013-02-05 12:52:00,79.8,57.8,29.97,West,261,2.0,4.0,47,0.00,,SCT020,0.00,VWS V14.01,2013-02-05 17:52:00,
2013-02-05 12:54:00,79.8,57.8,29.97,West,264,0.0,3.0,47,0.00,,SCT020,0.00,VWS V14.01,2013-02-05 17:54:00,
2013-02-05 12:57:00,79.8,55.3,29.97,WSW,251,2.0,2.0,43,0.00,,SCT020,0.00,VWS V14.01,2013-02-05 17:57:00,
2013-02-05 13:01:00,79.6,55.2,29.96,NW,309,0.0,2.0,43,0.00,,SCT020,0.00,VWS V14.01,2013-02-05 18:01:00,
2013-02-05 13:02:00,79.6,56.4,29.96,NNW,328,2.0,2.0,45,0.00,,SCT020,0.00,VWS V14.01,2013-02-05 18:02:00,
2013-02-05 13:03:00,79.6,56.4,29.96,North,10,1.0,3.0,45,0.00,,SCT020,0.00,VWS V14.01,2013-02-05 18:03:00,
2013-02-05 13:08:00,79.9,56.1,29.96,NNE,17,1.0,2.0,44,0.00,,SCT020,0.00,VWS V14.01,2013-02-05 18:08:00,
2013-02-05 13:10:00,79.9,56.1,29.96,NNE,23,2.0,2.0,44,0.00,,SCT020,0.00,VWS V14.01,2013-02-05 18:10:00,
2013-02-05 13:13:00,80.1,56.2,29.96,ESE,104,1.0,3.0,44,0.00,,SCT020,0.00,VWS V14.01,2013-02-05 18:13:00,
2013-02-05 13:14:00,80.1,56.2,29.96,ESE,104,1.0,1.0,44,0.00,,SCT020,0.00,VWS V14.01,2013-02-05 18:14:00,
2013-02-05 13:17:00,79.6,55.8,29.95,SE,128,1.0,2.0,44,0.00,,SCT020,0.00,VWS V14.01,2013-02-05 18:17:00,
2013-02-05 13:19:00,79.6,55.8,29.95,SE,128,0.0,0.0,44,0.00,,SCT020,0.00,VWS V14.01,2013-02-05 18:19:00,
2013-02-05 13:22:00,79.6,55.8,29.95,SE,128,0.0,0.0,44,0.00,,SCT020,0.00,VWS V14.01,2013-02-05 18:22:00,
2013-02-05 13:23:00,79.6,55.8,29.95,SE,128,0.0,0.0,44,0.00,,SCT020,0.00,VWS V14.01,2013-02-05 18:23:00,
2013-02-05 13:26:00,79.6,55.8,29.95,SE,128,0.0,0.0,44,0.00,,SCT020,0.00,VWS V14.01,2013-02-05 18:26:00,
2013-02-05 13:29:00,79.6,55.8,29.95,SE,128,0.0,0.0,44,0.00,,SCT020,0.00,VWS V14.01,2013-02-05 18:29:00,
2013-02-05 13:30:00,79.6,55.8,29.95,SE,128,0.0,0.0,44,0.00,,SCT020,0.00,VWS V14.01,2013-02-05 18:30:00,
2013-02-05 13:32:00,79.6,55.8,29.95,SE,128,0.0,0.0,44,0.00,,SCT020,0.00,VWS V14.01,2013-02-05 18:32:00,
2013-02-05 13:36:00,79.6,55.8,29.95,SE,128,0.0,0.0,44,0.00,,SCT020,0.00,VWS V14.01,2013-02-05 18:36:00,
2013-02-05 13:37:00,79.6,55.8,29.95,SE,128,0.0,0.0,44,0.00,,SCT020,0.00,VWS V14.01,2013-02-05 18:37:00,
2013-02-05 13:41:00,79.6,55.8,29.95,SE,128,0.0,0.0,44,0.00,,SCT020,0.00,VWS V14.01,2013-02-05 18:41:00,
2013-02-05 13:44:00,78.6,54.9,29.95,WNW,295,7.0,7.0,44,0.00,,SCT020,0.00,VWS V14.01,2013-02-05 18:44:00,
2013-02-05 13:45:00,78.6,54.9,29.95,NW,320,6.0,10.0,44,0.00,,SCT020,0.00,VWS V14.01,2013-02-05 18:45:00,
2013-02-05 13:50:00,78.3,56.4,29.95,WNW,301,2.0,4.0,47,0.00,,SCT020,0.00,VWS V14.01,2013-02-05 18:50:00,
2013-02-05 13:53:00,78.1,56.2,29.95,West,263,3.0,3.0,47,0.00,,SCT020,0.00,VWS V14.01,2013-02-05 18:53:00,
2013-02-05 13:55:00,78.1,56.2,29.95,WSW,258,1.0,3.0,47,0.00,,SCT020,0.00,VWS V14.01,2013-02-05 18:55:00,
2013-02-05 14:00:00,77.9,56.1,29.94,West,280,1.0,1.0,47,0.00,,SCT020,0.00,VWS V14.01,2013-02-05 19:00:00,
2013-02-05 14:01:00,77.9,56.1,29.94,West,280,1.0,1.0,47,0.00,,SCT020,0.00,VWS V14.01,2013-02-05 19:01:00,
2013-02-05 14:02:00,77.9,56.1,29.94,West,280,1.0,1.0,47,0.00,,SCT020,0.00,VWS V14.01,2013-02-05 19:02:00,
2013-02-05 14:07:00,77.9,56.1,29.94,WNW,285,3.0,4.0,47,0.00,,SCT020,0.00,VWS V14.01,2013-02-05 19:07:00,
2013-02-05 14:09:00,77.9,56.1,29.94,NW,305,2.0,3.0,47,0.00,,SCT020,0.00,VWS V14.01,2013-02-05 19:09:00,
2013-02-05 14:12:00,78.1,56.2,29.94,West,275,2.0,3.0,47,0.00,,SCT020,0.00,VWS V14.01,2013-02-05 19:12:00,
2013-02-05 14:16:00,78.1,55.0,29.94,NW,306,2.0,3.0,45,0.00,,SCT020,0.00,VWS V14.01,2013-02-05 19:16:00,
2013-02-05 14:17:00,78.1,55.0,29.94,NW,306,0.0,2.0,45,0.00,,SCT020,0.00,VWS V14.01,2013-02-05 19:17:00,
2013-02-05 14:22:00,78.3,58.7,29.94,NNW,344,6.0,6.0,51,0.00,,SCT020,0.00,VWS V14.01,2013-02-05 19:22:00,
2013-02-05 14:23:00,78.3,59.2,29.94,NE,51,3.0,6.0,52,0.00,,SCT020,0.00,VWS V14.01,2013-02-05 19:23:00,
2013-02-05 14:25:00,78.1,59.1,29.94,NNW,342,3.0,5.0,52,0.00,,SCT020,0.00,VWS V14.01,2013-02-05 19:25:00,
2013-02-05 14:28:00,77.9,59.9,29.94,NNW,339,2.0,5.0,54,0.00,,SCT020,0.00,VWS V14.01,2013-02-05 19:28:00,
2013-02-05 14:29:00,77.9,59.9,29.94,North,3,1.0,2.0,54,0.00,,SCT020,0.00,VWS V14.01,2013-02-05 19:29:00,
2013-02-05 14:34:00,77.7,59.2,29.94,North,0,0.0,3.0,53,0.00,,SCT020,0.00,VWS V14.01,2013-02-05 19:34:00,
2013-02-05 14:36:00,77.7,59.2,29.94,North,0,1.0,1.0,53,0.00,,SCT020,0.00,VWS V14.01,2013-02-05 19:36:00,
2013-02-05 14:39:00,77.7,59.2,29.94,North,0,0.0,0.0,53,0.00,,SCT020,0.00,VWS V14.01,2013-02-05 19:39:00,
2013-02-05 14:45:00,77.6,59.1,29.94,East,89,0.0,0.0,53,0.00,,SCT020,0.00,VWS V14.01,2013-02-05 19:45:00,
2013-02-05 14:46:00,77.6,59.1,29.94,East,89,0.0,0.0,53,0.00,,SCT020,0.00,VWS V14.01,2013-02-05 19:46:00,
2013-02-05 14:51:00,77.6,59.1,29.94,East,89,0.0,0.0,53,0.00,,SCT020,0.00,VWS V14.01,2013-02-05 19:51:00,
2013-02-05 14:52:00,77.6,59.1,29.94,East,89,0.0,0.0,53,0.00,,SCT020,0.00,VWS V14.01,2013-02-05 19:52:00,
2013-02-05 14:57:00,77.6,59.1,29.94,East,89,0.0,0.0,53,0.00,,SCT020,0.00,VWS V14.01,2013-02-05 19:57:00,
2013-02-05 14:58:00,77.6,59.1,29.94,East,89,0.0,0.0,53,0.00,,SCT020,0.00,VWS V14.01,2013-02-05 19:58:00,
2013-02-05 14:59:00,77.6,59.1,29.94,East,89,0.0,0.0,53,0.00,,SCT020,0.00,VWS V14.01,2013-02-05 19:59:00,
2013-02-05 15:02:00,77.6,59.1,29.94,East,89,0.0,0.0,53,0.00,,SCT020,0.00,VWS V14.01,2013-02-05 20:02:00,
2013-02-05 15:07:00,77.6,59.1,29.94,East,89,0.0,0.0,53,0.00,,SCT020,0.00,VWS V14.01,2013-02-05 20:07:00,
2013-02-05 15:11:00,77.6,59.1,29.94,ESE,104,2.0,2.0,53,0.00,,SCT020,0.00,VWS V14.01,2013-02-05 20:11:00,
2013-02-05 15:12:00,77.6,59.1,29.94,ESE,104,2.0,2.0,53,0.00,,SCT020,0.00,VWS V14.01,2013-02-05 20:12:00,
2013-02-05 15:13:00,77.6,59.1,29.94,ESE,104,2.0,2.0,53,0.00,,SCT020,0.00,VWS V14.01,2013-02-05 20:13:00,
2013-02-05 15:18:00,75.8,57.5,29.93,SSE,162,1.0,1.0,53,0.00,,SCT020,0.00,VWS V14.01,2013-02-05 20:18:00,
2013-02-05 15:19:00,75.8,57.5,29.93,SSE,162,1.0,1.0,53,0.00,,SCT020,0.00,VWS V14.01,2013-02-05 20:19:00,
2013-02-05 15:22:00,75.8,57.5,29.93,SSE,162,1.0,1.0,53,0.00,,SCT020,0.00,VWS V14.01,2013-02-05 20:22:00,
2013-02-05 15:24:00,75.8,57.5,29.93,SSE,162,1.0,1.0,53,0.00,,SCT020,0.00,VWS V14.01,2013-02-05 20:24:00,
2013-02-05 15:28:00,75.8,57.5,29.93,SSE,162,1.0,1.0,53,0.00,,SCT020,0.00,VWS V14.01,2013-02-05 20:28:00,
2013-02-05 15:29:00,75.8,57.5,29.93,SSE,162,1.0,1.0,53,0.00,,SCT020,0.00,VWS V14.01,2013-02-05 20:29:00,
2013-02-05 15:30:00,75.8,57.5,29.93,SSE,162,1.0,1.0,53,0.00,,SCT020,0.00,VWS V14.01,2013-02-05 20:30:00,
2013-02-05 15:33:00,75.8,57.5,29.93,East,99,6.0,6.0,53,0.00,,SCT020,0.00,VWS V14.01,2013-02-05 20:33:00,
2013-02-05 15:36:00,75.8,57.5,29.93,East,99,6.0,6.0,53,0.00,,SCT020,0.00,VWS V14.01,2013-02-05 20:36:00,
2013-02-05 15:38:00,75.8,57.5,29.93,East,99,6.0,6.0,53,0.00,,SCT020,0.00,VWS V14.01,2013-02-05 20:38:00,
2013-02-05 15:42:00,75.8,57.5,29.93,ESE,102,3.0,3.0,53,0.00,,SCT020,0.00,VWS V14.01,2013-02-05 20:42:00,
2013-02-05 15:45:00,75.8,57.5,29.93,ESE,102,3.0,3.0,53,0.00,,SCT020,0.00,VWS V14.01,2013-02-05 20:45:00,
2013-02-05 15:48:00,75.6,57.3,29.93,East,83,6.0,6.0,53,0.00,,SCT020,0.00,VWS V14.01,2013-02-05 20:48:00,
2013-02-05 15:51:00,75.6,57.3,29.93,ESE,116,3.0,3.0,53,0.00,,SCT020,0.00,VWS V14.01,2013-02-05 20:51:00,
2013-02-05 15:53:00,75.6,57.3,29.93,ESE,116,3.0,3.0,53,0.00,,SCT020,0.00,VWS V14.01,2013-02-05 20:53:00,
2013-02-05 15:57:00,75.6,57.3,29.93,South,179,2.0,2.0,53,0.00,,SCT020,0.00,VWS V14.01,2013-02-05 20:57:00,
2013-02-05 15:59:00,75.6,57.3,29.93,SE,127,1.0,3.0,53,0.00,,SCT020,0.00,VWS V14.01,2013-02-05 20:59:00,
2013-02-05 16:00:00,75.6,57.3,29.93,SE,127,1.0,1.0,53,0.00,,SCT020,0.00,VWS V14.01,2013-02-05 21:00:00,
2013-02-05 16:02:00,75.6,57.3,29.93,SE,127,1.0,1.0,53,0.00,,SCT020,0.00,VWS V14.01,2013-02-05 21:02:00,
2013-02-05 16:04:00,75.6,57.3,29.93,SE,127,1.0,1.0,53,0.00,,SCT020,0.00,VWS V14.01,2013-02-05 21:04:00,
2013-02-05 16:09:00,75.6,57.3,29.93,ESE,114,2.0,2.0,53,0.00,,SCT020,0.00,VWS V14.01,2013-02-05 21:09:00,
2013-02-05 16:10:00,75.6,57.3,29.93,ESE,114,2.0,2.0,53,0.00,,SCT020,0.00,VWS V14.01,2013-02-05 21:10:00,
2013-02-05 16:11:00,75.6,57.3,29.93,ESE,114,2.0,2.0,53,0.00,,SCT020,0.00,VWS V14.01,2013-02-05 21:11:00,
2013-02-05 16:14:00,75.6,57.3,29.93,ESE,114,2.0,2.0,53,0.00,,SCT020,0.00,VWS V14.01,2013-02-05 21:14:00,
2013-02-05 16:15:00,75.6,57.3,29.93,ESE,114,2.0,2.0,53,0.00,,SCT020,0.00,VWS V14.01,2013-02-05 21:15:00,
2013-02-05 16:19:00,75.6,57.3,29.93,ESE,114,2.0,2.0,53,0.00,,SCT020,0.00,VWS V14.01,2013-02-05 21:19:00,
2013-02-05 16:20:00,75.6,57.3,29.93,ESE,114,2.0,2.0,53,0.00,,SCT020,0.00,VWS V14.01,2013-02-05 21:20:00,
2013-02-05 16:25:00,75.6,57.3,29.93,ESE,116,2.0,2.0,53,0.00,,SCT020,0.00,VWS V14.01,2013-02-05 21:25:00,
2013-02-05 16:28:00,75.6,57.3,29.93,ESE,116,2.0,2.0,53,0.00,,SCT020,0.00,VWS V14.01,2013-02-05 21:28:00,
2013-02-05 16:29:00,75.6,57.3,29.93,ESE,116,2.0,2.0,53,0.00,,SCT020,0.00,VWS V14.01,2013-02-05 21:29:00,
2013-02-05 16:30:00,75.6,57.3,29.93,ESE,116,2.0,2.0,53,0.00,,SCT020,0.00,VWS V14.01,2013-02-05 21:30:00,
2013-02-05 16:35:00,75.1,60.3,29.93,ESE,116,3.0,4.0,60,0.00,,SCT020,0.00,VWS V14.01,2013-02-05 21:35:00,
2013-02-05 16:36:00,75.1,60.3,29.93,SE,127,0.0,4.0,60,0.00,,SCT020,0.00,VWS V14.01,2013-02-05 21:36:00,
2013-02-05 16:37:00,75.1,60.3,29.93,SE,133,1.0,2.0,60,0.00,,SCT020,0.00,VWS V14.01,2013-02-05 21:37:00,
2013-02-05 16:41:00,75.1,60.3,29.93,East,89,4.0,4.0,60,0.00,,SCT020,0.00,VWS V14.01,2013-02-05 21:41:00,
2013-02-05 16:42:00,74.9,60.1,29.93,East,86,2.0,5.0,60,0.00,,SCT020,0.00,VWS V14.01,2013-02-05 21:42:00,
2013-02-05 16:43:00,74.9,60.1,29.93,East,95,3.0,3.0,60,0.00,,SCT020,0.00,VWS V14.01,2013-02-05 21:43:00,
2013-02-05 16:46:00,74.9,60.1,29.93,SE,133,1.0,2.0,60,0.00,,SCT020,0.00,VWS V14.01,2013-02-05 21:46:00,
2013-02-05 16:48:00,74.9,60.1,29.93,SE,133,0.0,0.0,60,0.00,,SCT020,0.00,VWS V14.01,2013-02-05 21:48:00,
2013-02-05 16:49:00,74.9,60.1,29.93,SSE,152,0.0,5.0,60,0.00,,SCT020,0.00,VWS V14.01,2013-02-05 21:49:00,
2013-02-05 16:53:00,74.9,60.1,29.93,South,169,1.0,2.0,60,0.00,,SCT020,0.00,VWS V14.01,2013-02-05 21:53:00,
2013-02-05 16:54:00,74.9,59.6,29.93,SE,138,0.0,5.0,59,0.00,,SCT020,0.00,VWS V14.01,2013-02-05 21:54:00,
2013-02-05 16:55:00,74.9,59.6,29.93,SSE,147,1.0,1.0,59,0.00,,SCT020,0.00,VWS V14.01,2013-02-05 21:55:00,
2013-02-05 16:58:00,74.9,60.1,29.93,SE,140,1.0,2.0,60,0.00,,SCT020,0.00,VWS V14.01,2013-02-05 21:58:00,
2013-02-05 16:59:00,74.9,60.1,29.93,SE,133,1.0,1.0,60,0.00,,SCT020,0.00,VWS V14.01,2013-02-05 21:59:00,
2013-02-05 17:00:00,74.9,60.1,29.93,SE,133,0.0,1.0,60,0.00,,SCT020,0.00,VWS V14.01,2013-02-05 22:00:00,
2013-02-05 17:04:00,74.7,59.9,29.93,SE,124,1.0,2.0,60,0.00,,SCT020,0.00,VWS V14.01,2013-02-05 22:04:00,
2013-02-05 17:06:00,74.7,59.9,29.93,SE,124,0.0,1.0,60,0.00,,SCT020,0.00,VWS V14.01,2013-02-05 22:06:00,
2013-02-05 17:07:00,74.7,59.9,29.93,SE,124,0.0,0.0,60,0.00,,SCT020,0.00,VWS V14.01,2013-02-05 22:07:00,
2013-02-05 17:12:00,74.7,59.9,29.93,SSE,147,2.0,2.0,60,0.00,,SCT020,0.00,VWS V14.01,2013-02-05 22:12:00,
2013-02-05 17:13:00,74.7,59.9,29.93,East,97,3.0,3.0,60,0.00,,SCT020,0.00,VWS V14.01,2013-02-05 22:13:00,
2013-02-05 17:15:00,74.6,59.8,29.93,SE,131,2.0,5.0,60,0.00,,SCT020,0.00,VWS V14.01,2013-02-05 22:15:00,
2013-02-05 17:18:00,74.6,59.3,29.93,ESE,107,1.0,1.0,59,0.00,,SCT020,0.00,VWS V14.01,2013-02-05 22:18:00,
2013-02-05 17:22:00,74.4,59.6,29.93,East,96,1.0,1.0,60,0.00,,SCT020,0.00,VWS V14.01,2013-02-05 22:22:00,
2013-02-05 17:24:00,74.4,59.6,29.93,East,96,1.0,1.0,60,0.00,,SCT020,0.00,VWS V14.01,2013-02-05 22:24:00,
2013-02-05 17:26:00,74.4,59.6,29.93,East,96,1.0,1.0,60,0.00,,SCT020,0.00,VWS V14.01,2013-02-05 22:26:00,
2013-02-05 17:28:00,74.4,59.6,29.93,ESE,104,1.0,1.0,60,0.00,,SCT020,0.00,VWS V14.01,2013-02-05 22:28:00,
2013-02-05 17:29:00,74.4,59.6,29.93,ESE,109,1.0,5.0,60,0.00,,SCT020,0.00,VWS V14.01,2013-02-05 22:29:00,
2013-02-05 17:32:00,74.4,59.6,29.93,ESE,109,1.0,1.0,60,0.00,,SCT020,0.00,VWS V14.01,2013-02-05 22:32:00,
2013-02-05 17:35:00,74.4,59.6,29.93,ESE,109,1.0,1.0,60,0.00,,SCT020,0.00,VWS V14.01,2013-02-05 22:35:00,
2013-02-05 17:36:00,74.4,59.6,29.93,ESE,109,1.0,1.0,60,0.00,,SCT020,0.00,VWS V14.01,2013-02-05 22:36:00,
2013-02-05 17:40:00,74.4,59.6,29.93,ESE,120,0.0,0.0,60,0.00,,SCT020,0.00,VWS V14.01,2013-02-05 22:40:00,
2013-02-05 17:41:00,74.4,59.6,29.93,ESE,120,0.0,0.0,60,0.00,,SCT020,0.00,VWS V14.01,2013-02-05 22:41:00,
2013-02-05 17:43:00,74.4,59.6,29.93,SE,130,6.0,6.0,60,0.00,,SCT020,0.00,VWS V14.01,2013-02-05 22:43:00,
2013-02-05 17:48:00,74.0,60.2,29.93,ESE,103,2.0,2.0,62,0.00,,SCT020,0.00,VWS V14.01,2013-02-05 22:48:00,
2013-02-05 17:50:00,74.0,60.2,29.93,SE,126,0.0,0.0,62,0.00,,SCT020,0.00,VWS V14.01,2013-02-05 22:50:00,
2013-02-05 17:52:00,74.0,60.2,29.93,SE,126,0.0,0.0,62,0.00,,SCT020,0.00,VWS V14.01,2013-02-05 22:52:00,
2013-02-05 17:54:00,73.9,60.1,29.93,East,92,1.0,1.0,62,0.00,,SCT020,0.00,VWS V14.01,2013-02-05 22:54:00,
2013-02-05 17:56:00,73.9,60.1,29.93,East,92,1.0,1.0,62,0.00,,SCT020,0.00,VWS V14.01,2013-02-05 22:56:00,
2013-02-05 17:59:00,73.7,59.9,29.93,South,169,0.0,0.0,62,0.00,,SCT020,0.00,VWS V14.01,2013-02-05 22:59:00,
2013-02-05 18:00:00,73.7,59.9,29.93,South,169,1.0,1.0,62,0.00,,SCT020,0.00,VWS V14.01,2013-02-05 23:00:00,
2013-02-05 18:03:00,73.5,60.6,29.93,SE,140,3.0,3.0,64,0.00,,SCT020,0.00,VWS V14.01,2013-02-05 23:03:00,
2013-02-05 18:05:00,73.5,60.6,29.93,East,93,1.0,2.0,64,0.00,,SCT020,0.00,VWS V14.01,2013-02-05 23:05:00,
2013-02-05 18:07:00,73.5,60.6,29.93,East,93,1.0,1.0,64,0.00,,SCT020,0.00,VWS V14.01,2013-02-05 23:07:00,
2013-02-05 18:11:00,73.3,60.8,29.93,SE,145,1.0,2.0,65,0.00,,SCT020,0.00,VWS V14.01,2013-02-05 23:11:00,
2013-02-05 18:13:00,73.3,60.8,29.93,SSE,161,1.0,1.0,65,0.00,,SCT020,0.00,VWS V14.01,2013-02-05 23:13:00,
2013-02-05 18:15:00,73.3,60.8,29.93,SE,130,1.0,1.0,65,0.00,,SCT020,0.00,VWS V14.01,2013-02-05 23:15:00,
2013-02-05 18:17:00,73.2,60.7,29.93,SE,130,1.0,1.0,65,0.00,,SCT020,0.00,VWS V14.01,2013-02-05 23:17:00,
2013-02-05 18:18:00,73.2,60.7,29.93,SE,130,1.0,1.0,65,0.00,,SCT020,0.00,VWS V14.01,2013-02-05 23:18:00,
2013-02-05 18:20:00,73.2,60.7,29.93,SE,130,1.0,1.0,65,0.00,,SCT020,0.00,VWS V14.01,2013-02-05 23:20:00,
2013-02-05 18:23:00,73.2,60.7,29.93,SE,130,1.0,1.0,65,0.00,,SCT020,0.00,VWS V14.01,2013-02-05 23:23:00,
2013-02-05 18:27:00,73.2,60.7,29.93,SE,130,1.0,1.0,65,0.00,,SCT020,0.00,VWS V14.01,2013-02-05 23:27:00,
2013-02-05 18:28:00,73.2,60.7,29.93,SE,130,1.0,1.0,65,0.00,,SCT020,0.00,VWS V14.01,2013-02-05 23:28:00,
2013-02-05 18:29:00,73.2,60.7,29.93,SE,130,1.0,1.0,65,0.00,,SCT020,0.00,VWS V14.01,2013-02-05 23:29:00,
2013-02-05 18:32:00,72.8,60.8,29.93,South,169,1.0,1.0,66,0.00,,SCT020,0.00,VWS V14.01,2013-02-05 23:32:00,
2013-02-05 18:34:00,72.8,60.8,29.93,SSE,167,1.0,3.0,66,0.00,,SCT020,0.00,VWS V14.01,2013-02-05 23:34:00,
2013-02-05 18:37:00,72.7,61.1,29.93,SE,143,0.0,1.0,67,0.00,,SCT020,0.00,VWS V14.01,2013-02-05 23:37:00,
2013-02-05 18:38:00,72.7,61.1,29.93,SE,138,2.0,2.0,67,0.00,,SCT020,0.00,VWS V14.01,2013-02-05 23:38:00,
2013-02-05 18:39:00,72.7,61.1,29.93,SE,138,0.0,2.0,67,0.00,,SCT020,0.00,VWS V14.01,2013-02-05 23:39:00,
2013-02-05 18:42:00,72.5,60.9,29.93,ESE,116,1.0,1.0,67,0.00,,SCT020,0.00,VWS V14.01,2013-02-05 23:42:00,
2013-02-05 18:45:00,72.3,60.7,29.94,SSE,157,1.0,2.0,67,0.00,,SCT020,0.00,VWS V14.01,2013-02-05 23:45:00,
2013-02-05 18:46:00,72.3,60.7,29.94,SSE,162,2.0,2.0,67,0.00,,SCT020,0.00,VWS V14.01,2013-02-05 23:46:00,
2013-02-05 18:47:00,72.3,61.2,29.94,SSE,162,0.0,2.0,68,0.00,,SCT020,0.00,VWS V14.01,2013-02-05 23:47:00,
2013-02-05 18:52:00,72.1,61.0,29.94,SE,136,0.0,0.0,68,0.00,,SCT020,0.00,VWS V14.01,2013-02-05 23:52:00,
2013-02-05 18:53:00,72.1,61.0,29.94,SE,136,0.0,0.0,68,0.00,,SCT020,0.00,VWS V14.01,2013-02-05 23:53:00,
2013-02-05 18:54:00,72.1,61.0,29.94,SE,136,0.0,0.0,68,0.00,,SCT020,0.00,VWS V14.01,2013-02-05 23:54:00,
2013-02-05 18:57:00,72.0,60.9,29.94,SE,136,0.0,0.0,68,0.00,,SCT020,0.00,VWS V14.01,2013-02-05 23:57:00,
2013-02-05 18:58:00,72.0,60.9,29.94,SE,136,0.0,0.0,68,0.00,,SCT020,0.00,VWS V14.01,2013-02-05 23:58:00,
2013-02-05 19:02:00,72.0,61.3,29.94,SE,131,1.0,1.0,69,0.00,,SCT020,0.00,VWS V14.01,2013-02-06 00:02:00,
2013-02-05 19:03:00,71.6,60.9,29.94,SE,127,1.0,1.0,69,0.00,,SCT020,0.00,VWS V14.01,2013-02-06 00:03:00,
2013-02-05 19:08:00,71.5,60.8,29.94,SSE,157,1.0,1.0,69,0.00,,SCT020,0.00,VWS V14.01,2013-02-06 00:08:00,
2013-02-05 19:09:00,71.5,60.8,29.94,SE,126,1.0,1.0,69,0.00,,SCT020,0.00,VWS V14.01,2013-02-06 00:09:00,
2013-02-05 19:11:00,71.5,60.8,29.94,SE,126,0.0,0.0,69,0.00,,SCT020,0.00,VWS V14.01,2013-02-06 00:11:00,
2013-02-05 19:13:00,71.3,61.0,29.94,SE,126,1.0,1.0,70,0.00,,SCT020,0.00,VWS V14.01,2013-02-06 00:13:00,
2013-02-05 19:14:00,71.3,61.0,29.94,SE,126,0.0,1.0,70,0.00,,SCT020,0.00,VWS V14.01,2013-02-06 00:14:00,
2013-02-05 19:16:00,71.3,61.0,29.94,SE,126,0.0,1.0,70,0.00,,SCT020,0.00,VWS V14.01,2013-02-06 00:16:00,
2013-02-05 19:19:00,71.1,60.8,29.94,SE,126,0.0,1.0,70,0.00,,SCT020,0.00,VWS V14.01,2013-02-06 00:19:00,
2013-02-05 19:21:00,71.1,61.2,29.94,SE,126,0.0,1.0,71,0.00,,SCT020,0.00,VWS V14.01,2013-02-06 00:21:00,
2013-02-05 19:25:00,71.1,61.2,29.94,SSE,150,2.0,2.0,71,0.00,,SCT020,0.00,VWS V14.01,2013-02-06 00:25:00,
2013-02-05 19:27:00,70.9,61.0,29.94,SSE,158,1.0,1.0,71,0.00,,SCT020,0.00,VWS V14.01,2013-02-06 00:27:00,
2013-02-05 19:32:00,70.9,61.0,29.95,SSE,158,0.0,0.0,71,0.00,,SCT020,0.00,VWS V14.01,2013-02-06 00:32:00,
2013-02-05 19:33:00,70.9,61.0,29.95,SSE,158,0.0,0.0,71,0.00,,SCT020,0.00,VWS V14.01,2013-02-06 00:33:00,
2013-02-05 19:34:00,70.9,61.0,29.95,SSE,158,1.0,1.0,71,0.00,,SCT020,0.00,VWS V14.01,2013-02-06 00:34:00,
2013-02-05 19:39:00,70.6,60.8,29.95,SSE,162,0.0,0.0,71,0.00,,SCT020,0.00,VWS V14.01,2013-02-06 00:39:00,
2013-02-05 19:40:00,70.6,60.8,29.95,SSE,162,0.0,0.0,71,0.00,,SCT020,0.00,VWS V14.01,2013-02-06 00:40:00,
2013-02-05 19:41:00,70.6,60.8,29.95,SE,127,0.0,1.0,71,0.00,,SCT020,0.00,VWS V14.01,2013-02-06 00:41:00,
2013-02-05 19:45:00,70.6,60.8,29.95,South,169,0.0,1.0,71,0.00,,SCT020,0.00,VWS V14.01,2013-02-06 00:45:00,
2013-02-05 19:46:00,70.6,60.8,29.95,South,169,0.0,0.0,71,0.00,,SCT020,0.00,VWS V14.01,2013-02-06 00:46:00,
2013-02-05 19:47:00,70.6,60.8,29.95,South,169,0.0,0.0,71,0.00,,SCT020,0.00,VWS V14.01,2013-02-06 00:47:00,
2013-02-05 19:51:00,70.6,60.8,29.95,South,169,0.0,0.0,71,0.00,,SCT020,0.00,VWS V14.01,2013-02-06 00:51:00,
2013-02-05 19:52:00,70.6,60.8,29.95,South,169,0.0,0.0,71,0.00,,SCT020,0.00,VWS V14.01,2013-02-06 00:52:00,
2013-02-05 19:53:00,70.3,60.5,29.95,South,169,0.0,0.0,71,0.00,,SCT020,0.00,VWS V14.01,2013-02-06 00:53:00,
2013-02-05 19:58:00,70.1,61.4,29.95,South,169,1.0,1.0,74,0.00,,SCT020,0.00,VWS V14.01,2013-02-06 00:58:00,
2013-02-05 19:59:00,69.9,61.2,29.95,South,169,1.0,1.0,74,0.00,,SCT020,0.00,VWS V14.01,2013-02-06 00:59:00,
2013-02-05 20:02:00,69.9,61.2,29.95,SSE,168,0.0,0.0,74,0.00,,SCT020,0.00,VWS V14.01,2013-02-06 01:02:00,
2013-02-05 20:03:00,69.9,61.2,29.95,SSE,168,0.0,0.0,74,0.00,,SCT020,0.00,VWS V14.01,2013-02-06 01:03:00,
2013-02-05 20:08:00,69.8,61.2,29.95,SSE,168,0.0,0.0,74,0.00,,SCT020,0.00,VWS V14.01,2013-02-06 01:08:00,
2013-02-05 20:09:00,69.8,61.2,29.95,SSE,168,0.0,0.0,74,0.00,,SCT020,0.00,VWS V14.01,2013-02-06 01:09:00,
2013-02-05 20:12:00,69.8,61.5,29.95,SSE,168,0.0,1.0,75,0.00,,SCT020,0.00,VWS V14.01,2013-02-06 01:12:00,
2013-02-05 20:13:00,69.8,61.5,29.95,SSE,168,0.0,1.0,75,0.00,,SCT020,0.00,VWS V14.01,2013-02-06 01:13:00,
2013-02-05 20:15:00,69.6,61.3,29.96,SSE,168,0.0,1.0,75,0.00,,SCT020,0.00,VWS V14.01,2013-02-06 01:15:00,
2013-02-05 20:18:00,69.6,61.3,29.96,SSE,168,0.0,0.0,75,0.00,,SCT020,0.00,VWS V14.01,2013-02-06 01:18:00,
2013-02-05 20:19:00,69.6,61.3,29.96,SSE,168,0.0,0.0,75,0.00,,SCT020,0.00,VWS V14.01,2013-02-06 01:19:00,
2013-02-05 20:21:00,69.4,61.1,29.96,SSE,168,0.0,0.0,75,0.00,,SCT020,0.00,VWS V14.01,2013-02-06 01:21:00,
2013-02-05 20:24:00,69.4,61.1,29.96,SSE,168,0.0,0.0,75,0.00,,SCT020,0.00,VWS V14.01,2013-02-06 01:24:00,
2013-02-05 20:25:00,69.3,61.0,29.96,SSE,168,0.0,0.0,75,0.00,,SCT020,0.00,VWS V14.01,2013-02-06 01:25:00,
2013-02-05 20:30:00,69.3,61.4,29.96,SSE,168,0.0,0.0,76,0.00,,SCT020,0.00,VWS V14.01,2013-02-06 01:30:00,
2013-02-05 20:31:00,69.1,61.2,29.96,SSE,168,0.0,0.0,76,0.00,,SCT020,0.00,VWS V14.01,2013-02-06 01:31:00,
2013-02-05 20:35:00,69.1,61.2,29.96,SSE,168,0.0,0.0,76,0.00,,SCT020,0.00,VWS V14.01,2013-02-06 01:35:00,
2013-02-05 20:36:00,68.9,61.0,29.96,SSE,168,0.0,0.0,76,0.00,,SCT020,0.00,VWS V14.01,2013-02-06 01:36:00,
2013-02-05 20:39:00,68.9,61.4,29.96,SSE,168,0.0,0.0,77,0.00,,SCT020,0.00,VWS V14.01,2013-02-06 01:39:00,
2013-02-05 20:42:00,68.8,61.3,29.96,SSE,168,0.0,0.0,77,0.00,,SCT020,0.00,VWS V14.01,2013-02-06 01:42:00,
2013-02-05 20:47:00,68.8,61.7,29.96,SSE,168,0.0,0.0,78,0.00,,SCT020,0.00,VWS V14.01,2013-02-06 01:47:00,
2013-02-05 20:50:00,68.6,61.5,29.96,SSE,168,0.0,0.0,78,0.00,,SCT020,0.00,VWS V14.01,2013-02-06 01:50:00,
2013-02-05 20:51:00,68.6,61.5,29.96,SSE,168,0.0,0.0,78,0.00,,SCT020,0.00,VWS V14.01,2013-02-06 01:51:00,
2013-02-05 20:52:00,68.6,61.5,29.96,SSE,168,0.0,1.0,78,0.00,,SCT020,0.00,VWS V14.01,2013-02-06 01:52:00,
2013-02-05 20:57:00,68.6,61.5,29.96,South,171,0.0,1.0,78,0.00,,SCT020,0.00,VWS V14.01,2013-02-06 01:57:00,
2013-02-05 20:58:00,68.6,61.5,29.96,South,171,0.0,0.0,78,0.00,,SCT020,0.00,VWS V14.01,2013-02-06 01:58:00,
2013-02-05 21:01:00,68.6,61.5,29.96,South,171,0.0,0.0,78,0.00,,SCT020,0.00,VWS V14.01,2013-02-06 02:01:00,
2013-02-05 21:04:00,68.6,61.5,29.96,South,171,0.0,0.0,78,0.00,,SCT020,0.00,VWS V14.01,2013-02-06 02:04:00,
2013-02-05 21:05:00,68.6,61.5,29.96,South,171,0.0,0.0,78,0.00,,SCT020,0.00,VWS V14.01,2013-02-06 02:05:00,
2013-02-05 21:08:00,68.6,61.8,29.96,South,171,0.0,0.0,79,0.00,,SCT020,0.00,VWS V14.01,2013-02-06 02:08:00,
2013-02-05 21:10:00,68.4,61.6,29.96,South,171,0.0,0.0,79,0.00,,SCT020,0.00,VWS V14.01,2013-02-06 02:10:00,
2013-02-05 21:15:00,68.4,61.6,29.96,South,171,0.0,1.0,79,0.00,,SCT020,0.00,VWS V14.01,2013-02-06 02:15:00,
2013-02-05 21:17:00,68.4,61.6,29.96,South,171,0.0,1.0,79,0.00,,SCT020,0.00,VWS V14.01,2013-02-06 02:17:00,
2013-02-05 21:20:00,68.4,61.6,29.96,South,171,0.0,0.0,79,0.00,,SCT020,0.00,VWS V14.01,2013-02-06 02:20:00,
2013-02-05 21:22:00,68.4,61.6,29.96,South,171,0.0,0.0,79,0.00,,SCT020,0.00,VWS V14.01,2013-02-06 02:22:00,
2013-02-05 21:27:00,68.4,61.6,29.96,South,171,0.0,0.0,79,0.00,,SCT020,0.00,VWS V14.01,2013-02-06 02:27:00,
2013-02-05 21:29:00,68.3,61.5,29.96,South,171,0.0,0.0,79,0.00,,SCT020,0.00,VWS V14.01,2013-02-06 02:29:00,
2013-02-05 21:31:00,68.3,61.5,29.96,South,171,0.0,0.0,79,0.00,,SCT020,0.00,VWS V14.01,2013-02-06 02:31:00,
2013-02-05 21:34:00,68.1,61.3,29.96,South,171,0.0,0.0,79,0.00,,SCT020,0.00,VWS V14.01,2013-02-06 02:34:00,
2013-02-05 21:36:00,68.1,61.3,29.96,South,171,0.0,0.0,79,0.00,,SCT020,0.00,VWS V14.01,2013-02-06 02:36:00,
2013-02-05 21:37:00,68.1,61.3,29.96,South,171,0.0,0.0,79,0.00,,SCT020,0.00,VWS V14.01,2013-02-06 02:37:00,
2013-02-05 21:38:00,68.1,61.3,29.96,South,171,0.0,0.0,79,0.00,,SCT020,0.00,VWS V14.01,2013-02-06 02:38:00,
2013-02-05 21:40:00,67.9,61.2,29.96,South,171,0.0,0.0,79,0.00,,SCT020,0.00,VWS V14.01,2013-02-06 02:40:00,
2013-02-05 21:42:00,67.9,61.5,29.96,South,171,0.0,0.0,80,0.00,,SCT020,0.00,VWS V14.01,2013-02-06 02:42:00,
2013-02-05 21:46:00,67.8,61.4,29.97,South,171,0.0,0.0,80,0.00,,SCT020,0.00,VWS V14.01,2013-02-06 02:46:00,
2013-02-05 21:47:00,67.8,61.4,29.97,South,171,0.0,0.0,80,0.00,,SCT020,0.00,VWS V14.01,2013-02-06 02:47:00,
2013-02-05 21:50:00,67.6,61.6,29.97,South,171,0.0,0.0,81,0.00,,SCT020,0.00,VWS V14.01,2013-02-06 02:50:00,
2013-02-05 21:51:00,67.6,61.6,29.97,South,171,0.0,0.0,81,0.00,,SCT020,0.00,VWS V14.01,2013-02-06 02:51:00,
2013-02-05 21:53:00,67.4,61.4,29.97,South,171,0.0,0.0,81,0.00,,SCT020,0.00,VWS V14.01,2013-02-06 02:53:00,
2013-02-05 21:55:00,67.4,61.4,29.97,South,171,0.0,0.0,81,0.00,,SCT020,0.00,VWS V14.01,2013-02-06 02:55:00,
2013-02-05 21:59:00,67.3,61.6,29.97,South,171,0.0,0.0,82,0.00,,SCT020,0.00,VWS V14.01,2013-02-06 02:59:00,
2013-02-05 22:01:00,67.1,61.4,29.97,South,171,0.0,0.0,82,0.00,,SCT020,0.00,VWS V14.01,2013-02-06 03:01:00,
2013-02-05 22:03:00,67.1,61.4,29.97,South,171,0.0,0.0,82,0.00,,SCT020,0.00,VWS V14.01,2013-02-06 03:03:00,
2013-02-05 22:07:00,66.9,61.2,29.97,South,171,0.0,0.0,82,0.00,,SCT020,0.00,VWS V14.01,2013-02-06 03:07:00,
2013-02-05 22:11:00,66.8,61.1,29.97,South,171,0.0,0.0,82,0.00,,SCT020,0.00,VWS V14.01,2013-02-06 03:11:00,
2013-02-05 22:12:00,66.8,61.1,29.97,South,171,0.0,0.0,82,0.00,,SCT020,0.00,VWS V14.01,2013-02-06 03:12:00,
2013-02-05 22:14:00,66.6,61.3,29.97,South,171,0.0,0.0,83,0.00,,SCT020,0.00,VWS V14.01,2013-02-06 03:14:00,
2013-02-05 22:17:00,66.6,61.3,29.97,South,171,0.0,0.0,83,0.00,,SCT020,0.00,VWS V14.01,2013-02-06 03:17:00,
2013-02-05 22:18:00,66.4,61.1,29.97,South,171,0.0,0.0,83,0.00,,SCT020,0.00,VWS V14.01,2013-02-06 03:18:00,
2013-02-05 22:19:00,66.4,61.1,29.97,South,171,0.0,0.0,83,0.00,,SCT020,0.00,VWS V14.01,2013-02-06 03:19:00,
2013-02-05 22:20:00,66.4,61.1,29.97,South,171,0.0,0.0,83,0.00,,SCT020,0.00,VWS V14.01,2013-02-06 03:20:00,
2013-02-05 22:25:00,66.3,61.0,29.97,South,171,0.0,0.0,83,0.00,,SCT020,0.00,VWS V14.01,2013-02-06 03:25:00,
2013-02-05 22:26:00,66.3,61.0,29.97,South,171,0.0,0.0,83,0.00,,SCT020,0.00,VWS V14.01,2013-02-06 03:26:00,
2013-02-05 22:28:00,66.1,60.8,29.97,South,171,0.0,0.0,83,0.00,,SCT020,0.00,VWS V14.01,2013-02-06 03:28:00,
2013-02-05 22:31:00,66.1,60.8,29.98,South,171,0.0,0.0,83,0.00,,SCT020,0.00,VWS V14.01,2013-02-06 03:31:00,
2013-02-05 22:32:00,66.0,61.0,29.98,South,171,0.0,0.0,84,0.00,,SCT020,0.00,VWS V14.01,2013-02-06 03:32:00,
2013-02-05 22:35:00,66.0,61.4,29.98,South,171,0.0,0.0,85,0.00,,SCT020,0.00,VWS V14.01,2013-02-06 03:35:00,
2013-02-05 22:37:00,66.0,61.4,29.98,South,171,0.0,0.0,85,0.00,,SCT020,0.00,VWS V14.01,2013-02-06 03:37:00,
2013-02-05 22:39:00,65.8,61.2,29.98,South,171,0.0,0.0,85,0.00,,SCT020,0.00,VWS V14.01,2013-02-06 03:39:00,
2013-02-05 22:40:00,65.8,61.2,29.98,South,171,0.0,0.0,85,0.00,,SCT020,0.00,VWS V14.01,2013-02-06 03:40:00,
2013-02-05 22:43:00,65.6,61.0,29.98,South,171,0.0,0.0,85,0.00,,SCT020,0.00,VWS V14.01,2013-02-06 03:43:00,
2013-02-05 22:45:00,65.6,61.0,29.98,South,171,0.0,0.0,85,0.00,,SCT020,0.00,VWS V14.01,2013-02-06 03:45:00,
2013-02-05 22:46:00,65.6,61.0,29.98,South,171,0.0,0.0,85,0.00,,SCT020,0.00,VWS V14.01,2013-02-06 03:46:00,
2013-02-05 22:48:00,65.6,61.0,29.98,South,171,0.0,0.0,85,0.00,,SCT020,0.00,VWS V14.01,2013-02-06 03:48:00,
2013-02-05 22:49:00,65.5,60.9,29.98,South,171,0.0,0.0,85,0.00,,SCT020,0.00,VWS V14.01,2013-02-06 03:49:00,
2013-02-05 22:54:00,65.5,61.2,29.98,South,171,0.0,0.0,86,0.00,,SCT020,0.00,VWS V14.01,2013-02-06 03:54:00,
2013-02-05 22:55:00,65.5,61.2,29.98,South,171,0.0,0.0,86,0.00,,SCT020,0.00,VWS V14.01,2013-02-06 03:55:00,
2013-02-05 22:56:00,65.5,61.2,29.98,South,171,0.0,0.0,86,0.00,,SCT020,0.00,VWS V14.01,2013-02-06 03:56:00,
2013-02-05 22:57:00,65.5,61.2,29.98,South,171,0.0,0.0,86,0.00,,SCT020,0.00,VWS V14.01,2013-02-06 03:57:00,
2013-02-05 23:01:00,65.3,61.0,29.98,South,171,0.0,0.0,86,0.00,,SCT020,0.00,VWS V14.01,2013-02-06 04:01:00,
2013-02-05 23:03:00,65.2,60.9,29.98,South,171,0.0,0.0,86,0.00,,SCT020,0.00,VWS V14.01,2013-02-06 04:03:00,
2013-02-05 23:04:00,65.2,60.9,29.98,South,171,0.0,0.0,86,0.00,,SCT020,0.00,VWS V14.01,2013-02-06 04:04:00,
2013-02-05 23:07:00,65.0,60.7,29.98,South,171,0.0,0.0,86,0.00,,SCT020,0.00,VWS V14.01,2013-02-06 04:07:00,
2013-02-05 23:08:00,65.0,60.7,29.98,South,171,0.0,0.0,86,0.00,,SCT020,0.00,VWS V14.01,2013-02-06 04:08:00,
2013-02-05 23:09:00,65.0,60.7,29.98,South,171,0.0,0.0,86,0.00,,SCT020,0.00,VWS V14.01,2013-02-06 04:09:00,
2013-02-05 23:13:00,64.8,60.5,29.98,South,171,0.0,0.0,86,0.00,,SCT020,0.00,VWS V14.01,2013-02-06 04:13:00,
2013-02-05 23:14:00,64.8,60.5,29.98,South,171,0.0,0.0,86,0.00,,SCT020,0.00,VWS V14.01,2013-02-06 04:14:00,
2013-02-05 23:16:00,64.8,60.8,29.98,South,171,0.0,0.0,87,0.00,,SCT020,0.00,VWS V14.01,2013-02-06 04:16:00,
2013-02-05 23:20:00,64.7,60.8,29.98,South,171,0.0,0.0,87,0.00,,SCT020,0.00,VWS V14.01,2013-02-06 04:20:00,
2013-02-05 23:21:00,64.7,60.8,29.98,South,171,0.0,0.0,87,0.00,,SCT020,0.00,VWS V14.01,2013-02-06 04:21:00,
2013-02-05 23:22:00,64.7,60.8,29.98,South,171,0.0,0.0,87,0.00,,SCT020,0.00,VWS V14.01,2013-02-06 04:22:00,
2013-02-05 23:25:00,64.7,60.8,29.98,South,171,0.0,0.0,87,0.00,,SCT020,0.00,VWS V14.01,2013-02-06 04:25:00,
2013-02-05 23:26:00,64.7,60.8,29.98,South,171,0.0,0.0,87,0.00,,SCT020,0.00,VWS V14.01,2013-02-06 04:26:00,
2013-02-05 23:28:00,64.7,61.1,29.98,South,171,0.0,0.0,88,0.00,,SCT020,0.00,VWS V14.01,2013-02-06 04:28:00,
2013-02-05 23:31:00,64.7,61.1,29.98,South,171,0.0,0.0,88,0.00,,SCT020,0.00,VWS V14.01,2013-02-06 04:31:00,
2013-02-05 23:32:00,64.7,61.1,29.98,South,171,0.0,0.0,88,0.00,,SCT020,0.00,VWS V14.01,2013-02-06 04:32:00,
2013-02-05 23:36:00,64.7,61.1,29.98,South,171,0.0,0.0,88,0.00,,SCT020,0.00,VWS V14.01,2013-02-06 04:36:00,
2013-02-05 23:37:00,64.7,61.1,29.98,South,171,0.0,0.0,88,0.00,,SCT020,0.00,VWS V14.01,2013-02-06 04:37:00,
2013-02-05 23:39:00,64.7,61.4,29.98,South,171,0.0,0.0,89,0.00,,SCT020,0.00,VWS V14.01,2013-02-06 04:39:00,
2013-02-05 23:43:00,64.7,61.4,29.98,South,171,0.0,0.0,89,0.00,,SCT020,0.00,VWS V14.01,2013-02-06 04:43:00,
2013-02-05 23:44:00,64.7,61.4,29.98,South,171,0.0,0.0,89,0.00,,SCT020,0.00,VWS V14.01,2013-02-06 04:44:00,
2013-02-05 23:46:00,64.5,61.2,29.97,South,171,0.0,0.0,89,0.00,,SCT020,0.00,VWS V14.01,2013-02-06 04:46:00,
2013-02-05 23:47:00,64.5,61.2,29.97,South,171,0.0,0.0,89,0.00,,SCT020,0.00,VWS V14.01,2013-02-06 04:47:00,
2013-02-05 23:49:00,64.5,61.2,29.97,South,171,0.0,0.0,89,0.00,,SCT020,0.00,VWS V14.01,2013-02-06 04:49:00,
2013-02-05 23:50:00,64.5,61.2,29.97,South,171,0.0,0.0,89,0.00,,SCT020,0.00,VWS V14.01,2013-02-06 04:50:00,
2013-02-05 23:53:00,64.3,61.0,29.97,South,171,0.0,0.0,89,0.00,,SCT020,0.00,VWS V14.01,2013-02-06 04:53:00,
2013-02-05 23:54:00,64.3,61.0,29.97,South,171,0.0,0.0,89,0.00,,SCT020,0.00,VWS V14.01,2013-02-06 04:54:00,
2013-02-05 23:56:00,64.3,61.0,29.97,South,171,0.0,0.0,89,0.00,,SCT020,0.00,VWS V14.01,2013-02-06 04:56:00,
2013-02-05 23:59:00,64.3,61.0,29.97,South,171,0.0,0.0,89,0.00,,SCT020,0.00,VWS V14.01,2013-02-06 04:59:00,